<?xml version="1.0" encoding="UTF-8" standalone="no" ?>
<gpx xmlns="http://www.topografix.com/GPX/1/1" xmlns:xsi="http://www.w3.org/2001/XMLSchema-instance" xsi:schemaLocation="http://www.topografix.com/GPX/1/1 http://www.topografix.com/GPX/1/1/gpx.xsd" version="1.1" creator="VisuGPX - https://www.visugpx.com">
  <metadata>
    <name>tour vaccarès gravel</name>
    <desc><![CDATA[Tour de l'étang ce Vaccarès en Camargue, pistes et routes.]]></desc>
  </metadata>
  <trk>
    <name><![CDATA[tour vaccarès gravel_1]]></name>
    <trkseg>
      <trkpt lat="43.57238" lon="4.54531">
        <ele>1</ele>
        <time>2021-05-16T07:08:58-07:00</time>
      </trkpt>
      <trkpt lat="43.57225" lon="4.54511">
        <ele>1</ele>
        <time>2021-05-16T07:08:59-07:00</time>
      </trkpt>
      <trkpt lat="43.5719" lon="4.54223">
        <ele>2</ele>
        <time>2021-05-16T07:09:00-07:00</time>
      </trkpt>
      <trkpt lat="43.57146" lon="4.53899">
        <ele>2</ele>
        <time>2021-05-16T07:09:01-07:00</time>
      </trkpt>
      <trkpt lat="43.57073" lon="4.53524">
        <ele>2</ele>
        <time>2021-05-16T07:09:02-07:00</time>
      </trkpt>
      <trkpt lat="43.57061" lon="4.53395">
        <ele>1</ele>
        <time>2021-05-16T07:09:03-07:00</time>
      </trkpt>
      <trkpt lat="43.57063" lon="4.53256">
        <ele>1</ele>
        <time>2021-05-16T07:09:04-07:00</time>
      </trkpt>
      <trkpt lat="43.57079" lon="4.53163">
        <ele>1</ele>
        <time>2021-05-16T07:09:05-07:00</time>
      </trkpt>
      <trkpt lat="43.57157" lon="4.53038">
        <ele>1</ele>
        <time>2021-05-16T07:09:06-07:00</time>
      </trkpt>
      <trkpt lat="43.57226" lon="4.52949">
        <ele>1</ele>
        <time>2021-05-16T07:09:07-07:00</time>
      </trkpt>
      <trkpt lat="43.57286" lon="4.52825">
        <ele>1</ele>
        <time>2021-05-16T07:09:08-07:00</time>
      </trkpt>
      <trkpt lat="43.57421" lon="4.52557">
        <ele>1</ele>
        <time>2021-05-16T07:09:09-07:00</time>
      </trkpt>
      <trkpt lat="43.57737" lon="4.51909">
        <ele>1</ele>
        <time>2021-05-16T07:09:10-07:00</time>
      </trkpt>
      <trkpt lat="43.57954" lon="4.51443">
        <ele>1</ele>
        <time>2021-05-16T07:09:11-07:00</time>
      </trkpt>
      <trkpt lat="43.5806" lon="4.5118">
        <ele>1.1</ele>
        <time>2021-05-16T07:09:12-07:00</time>
      </trkpt>
      <trkpt lat="43.58056" lon="4.50689">
        <ele>1</ele>
        <time>2021-05-16T07:09:13-07:00</time>
      </trkpt>
      <trkpt lat="43.58062" lon="4.50434">
        <ele>1</ele>
        <time>2021-05-16T07:09:14-07:00</time>
      </trkpt>
      <trkpt lat="43.58048" lon="4.5038">
        <ele>1</ele>
        <time>2021-05-16T07:09:15-07:00</time>
      </trkpt>
      <trkpt lat="43.58023" lon="4.50376">
        <ele>1</ele>
        <time>2021-05-16T07:09:16-07:00</time>
      </trkpt>
      <trkpt lat="43.57472" lon="4.50447">
        <ele>3</ele>
        <time>2021-05-16T07:09:17-07:00</time>
      </trkpt>
      <trkpt lat="43.57387" lon="4.5042">
        <ele>3</ele>
        <time>2021-05-16T07:09:18-07:00</time>
      </trkpt>
      <trkpt lat="43.5731" lon="4.50387">
        <ele>2</ele>
        <time>2021-05-16T07:09:19-07:00</time>
      </trkpt>
      <trkpt lat="43.57248" lon="4.503">
        <ele>4</ele>
        <time>2021-05-16T07:09:20-07:00</time>
      </trkpt>
      <trkpt lat="43.57141" lon="4.50162">
        <ele>5</ele>
        <time>2021-05-16T07:09:21-07:00</time>
      </trkpt>
      <trkpt lat="43.57063" lon="4.50054">
        <ele>4</ele>
        <time>2021-05-16T07:09:22-07:00</time>
      </trkpt>
      <trkpt lat="43.57032" lon="4.50003">
        <ele>5</ele>
        <time>2021-05-16T07:09:23-07:00</time>
      </trkpt>
      <trkpt lat="43.57001" lon="4.49934">
        <ele>6</ele>
        <time>2021-05-16T07:09:24-07:00</time>
      </trkpt>
      <trkpt lat="43.56986" lon="4.49906">
        <ele>4</ele>
        <time>2021-05-16T07:09:25-07:00</time>
      </trkpt>
      <trkpt lat="43.56927" lon="4.49821">
        <ele>4</ele>
        <time>2021-05-16T07:09:26-07:00</time>
      </trkpt>
      <trkpt lat="43.5688" lon="4.49768">
        <ele>4</ele>
        <time>2021-05-16T07:09:27-07:00</time>
      </trkpt>
      <trkpt lat="43.56857" lon="4.49748">
        <ele>4</ele>
        <time>2021-05-16T07:09:28-07:00</time>
      </trkpt>
      <trkpt lat="43.56813" lon="4.49719">
        <ele>4</ele>
        <time>2021-05-16T07:09:29-07:00</time>
      </trkpt>
      <trkpt lat="43.56744" lon="4.4969">
        <ele>1</ele>
        <time>2021-05-16T07:09:30-07:00</time>
      </trkpt>
      <trkpt lat="43.56718" lon="4.49686">
        <ele>1</ele>
        <time>2021-05-16T07:09:31-07:00</time>
      </trkpt>
      <trkpt lat="43.56576" lon="4.49691">
        <ele>1</ele>
        <time>2021-05-16T07:09:32-07:00</time>
      </trkpt>
      <trkpt lat="43.5653" lon="4.49684">
        <ele>1</ele>
        <time>2021-05-16T07:09:33-07:00</time>
      </trkpt>
      <trkpt lat="43.5649" lon="4.49667">
        <ele>1</ele>
        <time>2021-05-16T07:09:34-07:00</time>
      </trkpt>
      <trkpt lat="43.56447" lon="4.49644">
        <ele>1</ele>
        <time>2021-05-16T07:09:35-07:00</time>
      </trkpt>
      <trkpt lat="43.5607" lon="4.49387">
        <ele>2</ele>
        <time>2021-05-16T07:09:36-07:00</time>
      </trkpt>
      <trkpt lat="43.56033" lon="4.49355">
        <ele>1</ele>
        <time>2021-05-16T07:09:37-07:00</time>
      </trkpt>
      <trkpt lat="43.55781" lon="4.49099">
        <ele>1</ele>
        <time>2021-05-16T07:09:38-07:00</time>
      </trkpt>
      <trkpt lat="43.55769" lon="4.49092">
        <ele>2</ele>
        <time>2021-05-16T07:09:39-07:00</time>
      </trkpt>
      <trkpt lat="43.55761" lon="4.49096">
        <ele>1</ele>
        <time>2021-05-16T07:09:40-07:00</time>
      </trkpt>
      <trkpt lat="43.55762" lon="4.49098">
        <ele>2</ele>
        <time>2021-05-16T07:09:41-07:00</time>
      </trkpt>
      <trkpt lat="43.55767" lon="4.49089">
        <ele>2</ele>
        <time>2021-05-16T07:09:42-07:00</time>
      </trkpt>
      <trkpt lat="43.55758" lon="4.49077">
        <ele>1</ele>
        <time>2021-05-16T07:09:43-07:00</time>
      </trkpt>
      <trkpt lat="43.55684" lon="4.49001">
        <ele>1</ele>
        <time>2021-05-16T07:09:44-07:00</time>
      </trkpt>
      <trkpt lat="43.55592" lon="4.48937">
        <ele>1</ele>
        <time>2021-05-16T07:09:45-07:00</time>
      </trkpt>
      <trkpt lat="43.55582" lon="4.48918">
        <ele>2</ele>
        <time>2021-05-16T07:09:46-07:00</time>
      </trkpt>
      <trkpt lat="43.55575" lon="4.48888">
        <ele>-1</ele>
        <time>2021-05-16T07:09:47-07:00</time>
      </trkpt>
      <trkpt lat="43.5552" lon="4.48603">
        <ele>-1</ele>
        <time>2021-05-16T07:09:48-07:00</time>
      </trkpt>
      <trkpt lat="43.55508" lon="4.4855">
        <ele>-2</ele>
        <time>2021-05-16T07:09:49-07:00</time>
      </trkpt>
      <trkpt lat="43.55502" lon="4.48536">
        <ele>-1</ele>
        <time>2021-05-16T07:09:50-07:00</time>
      </trkpt>
      <trkpt lat="43.55488" lon="4.48522">
        <ele>-1</ele>
        <time>2021-05-16T07:09:51-07:00</time>
      </trkpt>
      <trkpt lat="43.55463" lon="4.48503">
        <ele>-1</ele>
        <time>2021-05-16T07:09:52-07:00</time>
      </trkpt>
      <trkpt lat="43.55134" lon="4.48263">
        <ele>1</ele>
        <time>2021-05-16T07:09:53-07:00</time>
      </trkpt>
      <trkpt lat="43.55112" lon="4.48254">
        <ele>-1</ele>
        <time>2021-05-16T07:09:54-07:00</time>
      </trkpt>
      <trkpt lat="43.55095" lon="4.48251">
        <ele>-1</ele>
        <time>2021-05-16T07:09:55-07:00</time>
      </trkpt>
      <trkpt lat="43.54638" lon="4.48177">
        <ele>1</ele>
        <time>2021-05-16T07:09:56-07:00</time>
      </trkpt>
      <trkpt lat="43.54604" lon="4.48177">
        <ele>1.9</ele>
        <time>2021-05-16T07:09:57-07:00</time>
      </trkpt>
      <trkpt lat="43.54571" lon="4.48189">
        <ele>1</ele>
        <time>2021-05-16T07:09:58-07:00</time>
      </trkpt>
      <trkpt lat="43.54462" lon="4.48244">
        <ele>1</ele>
        <time>2021-05-16T07:09:59-07:00</time>
      </trkpt>
      <trkpt lat="43.54261" lon="4.48335">
        <ele>1</ele>
        <time>2021-05-16T07:10:00-07:00</time>
      </trkpt>
      <trkpt lat="43.54239" lon="4.48341">
        <ele>1</ele>
        <time>2021-05-16T07:10:01-07:00</time>
      </trkpt>
      <trkpt lat="43.54218" lon="4.48341">
        <ele>1</ele>
        <time>2021-05-16T07:10:02-07:00</time>
      </trkpt>
      <trkpt lat="43.53894" lon="4.48295">
        <ele>1</ele>
        <time>2021-05-16T07:10:03-07:00</time>
      </trkpt>
      <trkpt lat="43.53772" lon="4.48219">
        <ele>1</ele>
        <time>2021-05-16T07:10:04-07:00</time>
      </trkpt>
      <trkpt lat="43.53656" lon="4.48135">
        <ele>1</ele>
        <time>2021-05-16T07:10:05-07:00</time>
      </trkpt>
      <trkpt lat="43.53541" lon="4.48058">
        <ele>1</ele>
        <time>2021-05-16T07:10:06-07:00</time>
      </trkpt>
      <trkpt lat="43.53385" lon="4.47926">
        <ele>1</ele>
        <time>2021-05-16T07:10:07-07:00</time>
      </trkpt>
      <trkpt lat="43.53361" lon="4.47893">
        <ele>1</ele>
        <time>2021-05-16T07:10:08-07:00</time>
      </trkpt>
      <trkpt lat="43.53321" lon="4.47825">
        <ele>-1</ele>
        <time>2021-05-16T07:10:09-07:00</time>
      </trkpt>
      <trkpt lat="43.53302" lon="4.478">
        <ele>-1</ele>
        <time>2021-05-16T07:10:10-07:00</time>
      </trkpt>
      <trkpt lat="43.53259" lon="4.47759">
        <ele>-2</ele>
        <time>2021-05-16T07:10:11-07:00</time>
      </trkpt>
      <trkpt lat="43.53193" lon="4.47689">
        <ele>1</ele>
        <time>2021-05-16T07:10:12-07:00</time>
      </trkpt>
      <trkpt lat="43.53133" lon="4.47631">
        <ele>1</ele>
        <time>2021-05-16T07:10:13-07:00</time>
      </trkpt>
      <trkpt lat="43.53065" lon="4.47558">
        <ele>1</ele>
        <time>2021-05-16T07:10:14-07:00</time>
      </trkpt>
      <trkpt lat="43.52972" lon="4.47466">
        <ele>-1</ele>
        <time>2021-05-16T07:10:15-07:00</time>
      </trkpt>
      <trkpt lat="43.52951" lon="4.47443">
        <ele>1</ele>
        <time>2021-05-16T07:10:16-07:00</time>
      </trkpt>
      <trkpt lat="43.52855" lon="4.47321">
        <ele>-1</ele>
        <time>2021-05-16T07:10:17-07:00</time>
      </trkpt>
      <trkpt lat="43.52832" lon="4.47281">
        <ele>-1</ele>
        <time>2021-05-16T07:10:18-07:00</time>
      </trkpt>
      <trkpt lat="43.52824" lon="4.47264">
        <ele>-1</ele>
        <time>2021-05-16T07:10:19-07:00</time>
      </trkpt>
      <trkpt lat="43.5277" lon="4.47118">
        <ele>-1</ele>
        <time>2021-05-16T07:10:20-07:00</time>
      </trkpt>
      <trkpt lat="43.52742" lon="4.47082">
        <ele>-1</ele>
        <time>2021-05-16T07:10:21-07:00</time>
      </trkpt>
      <trkpt lat="43.52734" lon="4.47065">
        <ele>-1</ele>
        <time>2021-05-16T07:10:22-07:00</time>
      </trkpt>
      <trkpt lat="43.52726" lon="4.47032">
        <ele>-1</ele>
        <time>2021-05-16T07:10:23-07:00</time>
      </trkpt>
      <trkpt lat="43.52703" lon="4.46854">
        <ele>1</ele>
        <time>2021-05-16T07:10:24-07:00</time>
      </trkpt>
      <trkpt lat="43.52694" lon="4.46821">
        <ele>2</ele>
        <time>2021-05-16T07:10:25-07:00</time>
      </trkpt>
      <trkpt lat="43.52681" lon="4.46797">
        <ele>2</ele>
        <time>2021-05-16T07:10:26-07:00</time>
      </trkpt>
      <trkpt lat="43.52604" lon="4.46694">
        <ele>1</ele>
        <time>2021-05-16T07:10:27-07:00</time>
      </trkpt>
      <trkpt lat="43.52444" lon="4.46488">
        <ele>1</ele>
        <time>2021-05-16T07:10:28-07:00</time>
      </trkpt>
      <trkpt lat="43.52399" lon="4.46422">
        <ele>1</ele>
        <time>2021-05-16T07:10:29-07:00</time>
      </trkpt>
      <trkpt lat="43.52346" lon="4.46326">
        <ele>-1</ele>
        <time>2021-05-16T07:10:30-07:00</time>
      </trkpt>
      <trkpt lat="43.52327" lon="4.463">
        <ele>-1</ele>
        <time>2021-05-16T07:10:31-07:00</time>
      </trkpt>
      <trkpt lat="43.52292" lon="4.4627">
        <ele>-1</ele>
        <time>2021-05-16T07:10:32-07:00</time>
      </trkpt>
      <trkpt lat="43.52233" lon="4.46225">
        <ele>1</ele>
        <time>2021-05-16T07:10:33-07:00</time>
      </trkpt>
      <trkpt lat="43.52137" lon="4.46182">
        <ele>1</ele>
        <time>2021-05-16T07:10:34-07:00</time>
      </trkpt>
      <trkpt lat="43.52116" lon="4.4617">
        <ele>1</ele>
        <time>2021-05-16T07:10:35-07:00</time>
      </trkpt>
      <trkpt lat="43.52106" lon="4.46157">
        <ele>1</ele>
        <time>2021-05-16T07:10:36-07:00</time>
      </trkpt>
      <trkpt lat="43.52103" lon="4.46152">
        <ele>1</ele>
        <time>2021-05-16T07:10:37-07:00</time>
      </trkpt>
      <trkpt lat="43.521" lon="4.46126">
        <ele>1</ele>
        <time>2021-05-16T07:10:38-07:00</time>
      </trkpt>
      <trkpt lat="43.52131" lon="4.45783">
        <ele>-1</ele>
        <time>2021-05-16T07:10:39-07:00</time>
      </trkpt>
      <trkpt lat="43.52122" lon="4.45758">
        <ele>-1</ele>
        <time>2021-05-16T07:10:40-07:00</time>
      </trkpt>
      <trkpt lat="43.52101" lon="4.45742">
        <ele>-1</ele>
        <time>2021-05-16T07:10:41-07:00</time>
      </trkpt>
      <trkpt lat="43.51973" lon="4.45669">
        <ele>1</ele>
        <time>2021-05-16T07:10:42-07:00</time>
      </trkpt>
      <trkpt lat="43.51882" lon="4.4562">
        <ele>1</ele>
        <time>2021-05-16T07:10:43-07:00</time>
      </trkpt>
      <trkpt lat="43.51843" lon="4.456">
        <ele>1</ele>
        <time>2021-05-16T07:10:44-07:00</time>
      </trkpt>
      <trkpt lat="43.51808" lon="4.45587">
        <ele>1</ele>
        <time>2021-05-16T07:10:45-07:00</time>
      </trkpt>
      <trkpt lat="43.51781" lon="4.45585">
        <ele>1</ele>
        <time>2021-05-16T07:10:46-07:00</time>
      </trkpt>
      <trkpt lat="43.51701" lon="4.45587">
        <ele>1</ele>
        <time>2021-05-16T07:10:47-07:00</time>
      </trkpt>
      <trkpt lat="43.51685" lon="4.45584">
        <ele>1</ele>
        <time>2021-05-16T07:10:48-07:00</time>
      </trkpt>
      <trkpt lat="43.51602" lon="4.45585">
        <ele>1</ele>
        <time>2021-05-16T07:10:49-07:00</time>
      </trkpt>
      <trkpt lat="43.51572" lon="4.45589">
        <ele>2</ele>
        <time>2021-05-16T07:10:50-07:00</time>
      </trkpt>
      <trkpt lat="43.51538" lon="4.45607">
        <ele>1</ele>
        <time>2021-05-16T07:10:51-07:00</time>
      </trkpt>
      <trkpt lat="43.515" lon="4.45641">
        <ele>2</ele>
        <time>2021-05-16T07:10:52-07:00</time>
      </trkpt>
      <trkpt lat="43.51484" lon="4.45643">
        <ele>3</ele>
        <time>2021-05-16T07:10:53-07:00</time>
      </trkpt>
      <trkpt lat="43.51475" lon="4.4564">
        <ele>3</ele>
        <time>2021-05-16T07:10:54-07:00</time>
      </trkpt>
      <trkpt lat="43.51433" lon="4.4561">
        <ele>2</ele>
        <time>2021-05-16T07:10:55-07:00</time>
      </trkpt>
      <trkpt lat="43.51404" lon="4.45594">
        <ele>1</ele>
        <time>2021-05-16T07:10:56-07:00</time>
      </trkpt>
      <trkpt lat="43.51248" lon="4.45492">
        <ele>1</ele>
        <time>2021-05-16T07:10:57-07:00</time>
      </trkpt>
      <trkpt lat="43.51199" lon="4.45465">
        <ele>-1</ele>
        <time>2021-05-16T07:10:58-07:00</time>
      </trkpt>
      <trkpt lat="43.51101" lon="4.45429">
        <ele>1</ele>
        <time>2021-05-16T07:10:59-07:00</time>
      </trkpt>
      <trkpt lat="43.51073" lon="4.45408">
        <ele>1</ele>
        <time>2021-05-16T07:11:00-07:00</time>
      </trkpt>
      <trkpt lat="43.51009" lon="4.45341">
        <ele>1</ele>
        <time>2021-05-16T07:11:01-07:00</time>
      </trkpt>
      <trkpt lat="43.50846" lon="4.45031">
        <ele>1</ele>
        <time>2021-05-16T07:11:02-07:00</time>
      </trkpt>
      <trkpt lat="43.50838" lon="4.4502">
        <ele>1</ele>
        <time>2021-05-16T07:11:03-07:00</time>
      </trkpt>
      <trkpt lat="43.5082" lon="4.45004">
        <ele>1</ele>
        <time>2021-05-16T07:11:04-07:00</time>
      </trkpt>
      <trkpt lat="43.50776" lon="4.44988">
        <ele>1</ele>
        <time>2021-05-16T07:11:05-07:00</time>
      </trkpt>
      <trkpt lat="43.50757" lon="4.44989">
        <ele>-1</ele>
        <time>2021-05-16T07:11:06-07:00</time>
      </trkpt>
      <trkpt lat="43.50718" lon="4.4504">
        <ele>-1</ele>
        <time>2021-05-16T07:11:07-07:00</time>
      </trkpt>
      <trkpt lat="43.50704" lon="4.45048">
        <ele>1.45</ele>
        <time>2021-05-16T07:11:08-07:00</time>
      </trkpt>
      <trkpt lat="43.50683" lon="4.45047">
        <ele>1.2</ele>
        <time>2021-05-16T07:11:09-07:00</time>
      </trkpt>
      <trkpt lat="43.5058" lon="4.45008">
        <ele>-1</ele>
        <time>2021-05-16T07:11:10-07:00</time>
      </trkpt>
      <trkpt lat="43.50553" lon="4.45">
        <ele>-2</ele>
        <time>2021-05-16T07:11:11-07:00</time>
      </trkpt>
      <trkpt lat="43.50465" lon="4.44966">
        <ele>-2</ele>
        <time>2021-05-16T07:11:12-07:00</time>
      </trkpt>
      <trkpt lat="43.50401" lon="4.44937">
        <ele>-1</ele>
        <time>2021-05-16T07:11:13-07:00</time>
      </trkpt>
      <trkpt lat="43.50292" lon="4.44895">
        <ele>-1</ele>
        <time>2021-05-16T07:11:14-07:00</time>
      </trkpt>
      <trkpt lat="43.5028" lon="4.44892">
        <ele>-1</ele>
        <time>2021-05-16T07:11:15-07:00</time>
      </trkpt>
      <trkpt lat="43.50262" lon="4.44892">
        <ele>1</ele>
        <time>2021-05-16T07:11:16-07:00</time>
      </trkpt>
      <trkpt lat="43.50208" lon="4.44908">
        <ele>-1</ele>
        <time>2021-05-16T07:11:17-07:00</time>
      </trkpt>
      <trkpt lat="43.49799" lon="4.45005">
        <ele>1</ele>
        <time>2021-05-16T07:11:18-07:00</time>
      </trkpt>
      <trkpt lat="43.49696" lon="4.45026">
        <ele>1</ele>
        <time>2021-05-16T07:11:19-07:00</time>
      </trkpt>
      <trkpt lat="43.49648" lon="4.4504">
        <ele>-1</ele>
        <time>2021-05-16T07:11:20-07:00</time>
      </trkpt>
      <trkpt lat="43.49506" lon="4.45073">
        <ele>-1</ele>
        <time>2021-05-16T07:11:21-07:00</time>
      </trkpt>
      <trkpt lat="43.49475" lon="4.45084">
        <ele>1</ele>
        <time>2021-05-16T07:11:22-07:00</time>
      </trkpt>
      <trkpt lat="43.49427" lon="4.4511">
        <ele>1</ele>
        <time>2021-05-16T07:11:23-07:00</time>
      </trkpt>
      <trkpt lat="43.49396" lon="4.45123">
        <ele>1</ele>
        <time>2021-05-16T07:11:24-07:00</time>
      </trkpt>
      <trkpt lat="43.49371" lon="4.45129">
        <ele>1</ele>
        <time>2021-05-16T07:11:25-07:00</time>
      </trkpt>
      <trkpt lat="43.49358" lon="4.45123">
        <ele>1</ele>
        <time>2021-05-16T07:11:26-07:00</time>
      </trkpt>
      <trkpt lat="43.49326" lon="4.45075">
        <ele>1</ele>
        <time>2021-05-16T07:11:27-07:00</time>
      </trkpt>
      <trkpt lat="43.4926" lon="4.45017">
        <ele>1</ele>
        <time>2021-05-16T07:11:28-07:00</time>
      </trkpt>
      <trkpt lat="43.4925" lon="4.45005">
        <ele>1</ele>
        <time>2021-05-16T07:11:29-07:00</time>
      </trkpt>
      <trkpt lat="43.49216" lon="4.44947">
        <ele>1</ele>
        <time>2021-05-16T07:11:30-07:00</time>
      </trkpt>
      <trkpt lat="43.49187" lon="4.44912">
        <ele>-1</ele>
        <time>2021-05-16T07:11:31-07:00</time>
      </trkpt>
      <trkpt lat="43.49106" lon="4.4485">
        <ele>1</ele>
        <time>2021-05-16T07:11:32-07:00</time>
      </trkpt>
      <trkpt lat="43.49074" lon="4.44831">
        <ele>-1</ele>
        <time>2021-05-16T07:11:33-07:00</time>
      </trkpt>
      <trkpt lat="43.49009" lon="4.44799">
        <ele>-1</ele>
        <time>2021-05-16T07:11:34-07:00</time>
      </trkpt>
      <trkpt lat="43.48965" lon="4.44773">
        <ele>-1</ele>
        <time>2021-05-16T07:11:35-07:00</time>
      </trkpt>
      <trkpt lat="43.48922" lon="4.44756">
        <ele>-2</ele>
        <time>2021-05-16T07:11:36-07:00</time>
      </trkpt>
      <trkpt lat="43.4881" lon="4.44698">
        <ele>-1</ele>
        <time>2021-05-16T07:11:37-07:00</time>
      </trkpt>
      <trkpt lat="43.48767" lon="4.44671">
        <ele>-2</ele>
        <time>2021-05-16T07:11:38-07:00</time>
      </trkpt>
      <trkpt lat="43.48741" lon="4.44644">
        <ele>-2</ele>
        <time>2021-05-16T07:11:39-07:00</time>
      </trkpt>
      <trkpt lat="43.48713" lon="4.44625">
        <ele>-2</ele>
        <time>2021-05-16T07:11:40-07:00</time>
      </trkpt>
      <trkpt lat="43.48604" lon="4.44566">
        <ele>-1</ele>
        <time>2021-05-16T07:11:41-07:00</time>
      </trkpt>
      <trkpt lat="43.4856" lon="4.44545">
        <ele>-2</ele>
        <time>2021-05-16T07:11:42-07:00</time>
      </trkpt>
      <trkpt lat="43.48536" lon="4.44536">
        <ele>-1</ele>
        <time>2021-05-16T07:11:43-07:00</time>
      </trkpt>
      <trkpt lat="43.48509" lon="4.44532">
        <ele>-1</ele>
        <time>2021-05-16T07:11:44-07:00</time>
      </trkpt>
      <trkpt lat="43.48443" lon="4.44542">
        <ele>1</ele>
        <time>2021-05-16T07:11:45-07:00</time>
      </trkpt>
      <trkpt lat="43.48392" lon="4.44538">
        <ele>1</ele>
        <time>2021-05-16T07:11:46-07:00</time>
      </trkpt>
      <trkpt lat="43.4834" lon="4.44519">
        <ele>1</ele>
        <time>2021-05-16T07:11:47-07:00</time>
      </trkpt>
      <trkpt lat="43.48291" lon="4.44485">
        <ele>1</ele>
        <time>2021-05-16T07:11:48-07:00</time>
      </trkpt>
      <trkpt lat="43.48053" lon="4.44275">
        <ele>-2</ele>
        <time>2021-05-16T07:11:49-07:00</time>
      </trkpt>
      <trkpt lat="43.47543" lon="4.43768">
        <ele>1</ele>
        <time>2021-05-16T07:11:50-07:00</time>
      </trkpt>
      <trkpt lat="43.4749" lon="4.43717">
        <ele>-1</ele>
        <time>2021-05-16T07:11:51-07:00</time>
      </trkpt>
      <trkpt lat="43.47439" lon="4.43684">
        <ele>-1</ele>
        <time>2021-05-16T07:11:52-07:00</time>
      </trkpt>
      <trkpt lat="43.47388" lon="4.43666">
        <ele>-1</ele>
        <time>2021-05-16T07:11:53-07:00</time>
      </trkpt>
      <trkpt lat="43.47016" lon="4.43569">
        <ele>1</ele>
        <time>2021-05-16T07:11:54-07:00</time>
      </trkpt>
      <trkpt lat="43.46961" lon="4.43546">
        <ele>1</ele>
        <time>2021-05-16T07:11:55-07:00</time>
      </trkpt>
      <trkpt lat="43.46853" lon="4.43491">
        <ele>-1</ele>
        <time>2021-05-16T07:11:56-07:00</time>
      </trkpt>
      <trkpt lat="43.46833" lon="4.43483">
        <ele>-1</ele>
        <time>2021-05-16T07:11:57-07:00</time>
      </trkpt>
      <trkpt lat="43.46785" lon="4.43472">
        <ele>-1</ele>
        <time>2021-05-16T07:11:58-07:00</time>
      </trkpt>
      <trkpt lat="43.46418" lon="4.43447">
        <ele>-2</ele>
        <time>2021-05-16T07:11:59-07:00</time>
      </trkpt>
      <trkpt lat="43.46353" lon="4.43438">
        <ele>1</ele>
        <time>2021-05-16T07:12:00-07:00</time>
      </trkpt>
      <trkpt lat="43.4602" lon="4.43382">
        <ele>-1</ele>
        <time>2021-05-16T07:12:01-07:00</time>
      </trkpt>
      <trkpt lat="43.45965" lon="4.43358">
        <ele>1</ele>
        <time>2021-05-16T07:12:02-07:00</time>
      </trkpt>
      <trkpt lat="43.45918" lon="4.43321">
        <ele>1</ele>
        <time>2021-05-16T07:12:03-07:00</time>
      </trkpt>
      <trkpt lat="43.4586" lon="4.43281">
        <ele>1</ele>
        <time>2021-05-16T07:12:04-07:00</time>
      </trkpt>
      <trkpt lat="43.45812" lon="4.43265">
        <ele>1</ele>
        <time>2021-05-16T07:12:05-07:00</time>
      </trkpt>
      <trkpt lat="43.45718" lon="4.43241">
        <ele>1</ele>
        <time>2021-05-16T07:12:06-07:00</time>
      </trkpt>
      <trkpt lat="43.45696" lon="4.43232">
        <ele>1</ele>
        <time>2021-05-16T07:12:07-07:00</time>
      </trkpt>
      <trkpt lat="43.45663" lon="4.43205">
        <ele>2</ele>
        <time>2021-05-16T07:12:08-07:00</time>
      </trkpt>
      <trkpt lat="43.45587" lon="4.43136">
        <ele>1</ele>
        <time>2021-05-16T07:12:09-07:00</time>
      </trkpt>
      <trkpt lat="43.4554" lon="4.43088">
        <ele>4</ele>
        <time>2021-05-16T07:12:10-07:00</time>
      </trkpt>
      <trkpt lat="43.45478" lon="4.43064">
        <ele>5</ele>
        <time>2021-05-16T07:12:11-07:00</time>
      </trkpt>
      <trkpt lat="43.45419" lon="4.43049">
        <ele>5</ele>
        <time>2021-05-16T07:12:12-07:00</time>
      </trkpt>
      <trkpt lat="43.45397" lon="4.43036">
        <ele>5</ele>
        <time>2021-05-16T07:12:13-07:00</time>
      </trkpt>
      <trkpt lat="43.45368" lon="4.43006">
        <ele>4</ele>
        <time>2021-05-16T07:12:14-07:00</time>
      </trkpt>
      <trkpt lat="43.45333" lon="4.42955">
        <ele>4</ele>
        <time>2021-05-16T07:12:15-07:00</time>
      </trkpt>
      <trkpt lat="43.4525" lon="4.42907">
        <ele>4</ele>
        <time>2021-05-16T07:12:16-07:00</time>
      </trkpt>
      <trkpt lat="43.45286" lon="4.42828">
        <ele>3</ele>
        <time>2021-05-16T07:12:17-07:00</time>
      </trkpt>
      <trkpt lat="43.45288" lon="4.428">
        <ele>3</ele>
        <time>2021-05-16T07:12:18-07:00</time>
      </trkpt>
      <trkpt lat="43.45237" lon="4.42753">
        <ele>3</ele>
        <time>2021-05-16T07:12:19-07:00</time>
      </trkpt>
      <trkpt lat="43.45224" lon="4.42767">
        <ele>4</ele>
        <time>2021-05-16T07:12:20-07:00</time>
      </trkpt>
      <trkpt lat="43.45202" lon="4.4275">
        <ele>3</ele>
        <time>2021-05-16T07:12:21-07:00</time>
      </trkpt>
      <trkpt lat="43.45164" lon="4.42817">
        <ele>4</ele>
        <time>2021-05-16T07:12:22-07:00</time>
      </trkpt>
      <trkpt lat="43.45144" lon="4.42798">
        <ele>5</ele>
        <time>2021-05-16T07:12:23-07:00</time>
      </trkpt>
      <trkpt lat="43.45153" lon="4.42764">
        <ele>4</ele>
        <time>2021-05-16T07:12:24-07:00</time>
      </trkpt>
      <trkpt lat="43.45185" lon="4.42671">
        <ele>3</ele>
        <time>2021-05-16T07:12:25-07:00</time>
      </trkpt>
      <trkpt lat="43.45091" lon="4.42649">
        <ele>4</ele>
        <time>2021-05-16T07:12:26-07:00</time>
      </trkpt>
      <trkpt lat="43.45035" lon="4.42654">
        <ele>2</ele>
        <time>2021-05-16T07:12:27-07:00</time>
      </trkpt>
      <trkpt lat="43.45022" lon="4.42583">
        <ele>1</ele>
        <time>2021-05-16T07:12:28-07:00</time>
      </trkpt>
      <trkpt lat="43.44984" lon="4.42587">
        <ele>1</ele>
        <time>2021-05-16T07:12:29-07:00</time>
      </trkpt>
      <trkpt lat="43.44966" lon="4.42611">
        <ele>1</ele>
        <time>2021-05-16T07:12:30-07:00</time>
      </trkpt>
      <trkpt lat="43.44935" lon="4.42683">
        <ele>2</ele>
        <time>2021-05-16T07:12:31-07:00</time>
      </trkpt>
      <trkpt lat="43.44935" lon="4.42717">
        <ele>1</ele>
        <time>2021-05-16T07:12:32-07:00</time>
      </trkpt>
      <trkpt lat="43.44944" lon="4.42755">
        <ele>1</ele>
        <time>2021-05-16T07:12:33-07:00</time>
      </trkpt>
      <trkpt lat="43.44961" lon="4.42786">
        <ele>2</ele>
        <time>2021-05-16T07:12:34-07:00</time>
      </trkpt>
      <trkpt lat="43.44979" lon="4.42809">
        <ele>2</ele>
        <time>2021-05-16T07:12:35-07:00</time>
      </trkpt>
      <trkpt lat="43.44982" lon="4.42837">
        <ele>2</ele>
        <time>2021-05-16T07:12:36-07:00</time>
      </trkpt>
      <trkpt lat="43.44971" lon="4.42888">
        <ele>3</ele>
        <time>2021-05-16T07:12:37-07:00</time>
      </trkpt>
      <trkpt lat="43.4497" lon="4.4291">
        <ele>2</ele>
        <time>2021-05-16T07:12:38-07:00</time>
      </trkpt>
      <trkpt lat="43.44973" lon="4.42933">
        <ele>2</ele>
        <time>2021-05-16T07:12:39-07:00</time>
      </trkpt>
      <trkpt lat="43.44987" lon="4.42949">
        <ele>4</ele>
        <time>2021-05-16T07:12:40-07:00</time>
      </trkpt>
      <trkpt lat="43.45005" lon="4.42961">
        <ele>3</ele>
        <time>2021-05-16T07:12:41-07:00</time>
      </trkpt>
      <trkpt lat="43.45019" lon="4.42962">
        <ele>5</ele>
        <time>2021-05-16T07:12:42-07:00</time>
      </trkpt>
      <trkpt lat="43.45026" lon="4.42975">
        <ele>5</ele>
        <time>2021-05-16T07:12:43-07:00</time>
      </trkpt>
      <trkpt lat="43.45031" lon="4.42997">
        <ele>5</ele>
        <time>2021-05-16T07:12:44-07:00</time>
      </trkpt>
      <trkpt lat="43.45038" lon="4.43053">
        <ele>3</ele>
        <time>2021-05-16T07:12:45-07:00</time>
      </trkpt>
      <trkpt lat="43.45053" lon="4.43075">
        <ele>2</ele>
        <time>2021-05-16T07:12:46-07:00</time>
      </trkpt>
      <trkpt lat="43.45072" lon="4.43088">
        <ele>2</ele>
        <time>2021-05-16T07:12:47-07:00</time>
      </trkpt>
      <trkpt lat="43.45089" lon="4.43105">
        <ele>2</ele>
        <time>2021-05-16T07:12:48-07:00</time>
      </trkpt>
      <trkpt lat="43.45124" lon="4.43189">
        <ele>1</ele>
        <time>2021-05-16T07:12:49-07:00</time>
      </trkpt>
      <trkpt lat="43.45249" lon="4.43465">
        <ele>4</ele>
        <time>2021-05-16T07:12:50-07:00</time>
      </trkpt>
      <trkpt lat="43.45262" lon="4.43492">
        <ele>4</ele>
        <time>2021-05-16T07:12:51-07:00</time>
      </trkpt>
      <trkpt lat="43.45277" lon="4.43515">
        <ele>3</ele>
        <time>2021-05-16T07:12:52-07:00</time>
      </trkpt>
      <trkpt lat="43.45364" lon="4.43714">
        <ele>1.6</ele>
        <time>2021-05-16T07:12:53-07:00</time>
      </trkpt>
      <trkpt lat="43.454" lon="4.43816">
        <ele>2</ele>
        <time>2021-05-16T07:12:54-07:00</time>
      </trkpt>
      <trkpt lat="43.45416" lon="4.43846">
        <ele>2</ele>
        <time>2021-05-16T07:12:55-07:00</time>
      </trkpt>
      <trkpt lat="43.45456" lon="4.43937">
        <ele>2</ele>
        <time>2021-05-16T07:12:56-07:00</time>
      </trkpt>
      <trkpt lat="43.45489" lon="4.43991">
        <ele>2</ele>
        <time>2021-05-16T07:12:57-07:00</time>
      </trkpt>
      <trkpt lat="43.45498" lon="4.44018">
        <ele>2</ele>
        <time>2021-05-16T07:12:58-07:00</time>
      </trkpt>
      <trkpt lat="43.45534" lon="4.44101">
        <ele>4</ele>
        <time>2021-05-16T07:12:59-07:00</time>
      </trkpt>
      <trkpt lat="43.45543" lon="4.44115">
        <ele>4</ele>
        <time>2021-05-16T07:13:00-07:00</time>
      </trkpt>
      <trkpt lat="43.4559" lon="4.44219">
        <ele>3</ele>
        <time>2021-05-16T07:13:01-07:00</time>
      </trkpt>
      <trkpt lat="43.45612" lon="4.4428">
        <ele>2</ele>
        <time>2021-05-16T07:13:02-07:00</time>
      </trkpt>
      <trkpt lat="43.4565" lon="4.44426">
        <ele>1</ele>
        <time>2021-05-16T07:13:03-07:00</time>
      </trkpt>
      <trkpt lat="43.45652" lon="4.44449">
        <ele>1</ele>
        <time>2021-05-16T07:13:04-07:00</time>
      </trkpt>
      <trkpt lat="43.45661" lon="4.44495">
        <ele>1</ele>
        <time>2021-05-16T07:13:05-07:00</time>
      </trkpt>
      <trkpt lat="43.45734" lon="4.44813">
        <ele>1</ele>
        <time>2021-05-16T07:13:06-07:00</time>
      </trkpt>
      <trkpt lat="43.45746" lon="4.44855">
        <ele>1</ele>
        <time>2021-05-16T07:13:07-07:00</time>
      </trkpt>
      <trkpt lat="43.45839" lon="4.45282">
        <ele>1</ele>
        <time>2021-05-16T07:13:08-07:00</time>
      </trkpt>
      <trkpt lat="43.45907" lon="4.45577">
        <ele>1</ele>
        <time>2021-05-16T07:13:09-07:00</time>
      </trkpt>
      <trkpt lat="43.45949" lon="4.45751">
        <ele>1</ele>
        <time>2021-05-16T07:13:10-07:00</time>
      </trkpt>
      <trkpt lat="43.45976" lon="4.45845">
        <ele>1</ele>
        <time>2021-05-16T07:13:11-07:00</time>
      </trkpt>
      <trkpt lat="43.45993" lon="4.45887">
        <ele>2</ele>
        <time>2021-05-16T07:13:12-07:00</time>
      </trkpt>
      <trkpt lat="43.4605" lon="4.45988">
        <ele>1</ele>
        <time>2021-05-16T07:13:13-07:00</time>
      </trkpt>
      <trkpt lat="43.4606" lon="4.46011">
        <ele>1.5</ele>
        <time>2021-05-16T07:13:14-07:00</time>
      </trkpt>
      <trkpt lat="43.46109" lon="4.46101">
        <ele>1.6</ele>
        <time>2021-05-16T07:13:15-07:00</time>
      </trkpt>
      <trkpt lat="43.46155" lon="4.46171">
        <ele>1</ele>
        <time>2021-05-16T07:13:16-07:00</time>
      </trkpt>
      <trkpt lat="43.46303" lon="4.4644">
        <ele>1</ele>
        <time>2021-05-16T07:13:17-07:00</time>
      </trkpt>
      <trkpt lat="43.46387" lon="4.46587">
        <ele>1</ele>
        <time>2021-05-16T07:13:18-07:00</time>
      </trkpt>
      <trkpt lat="43.46418" lon="4.46649">
        <ele>1</ele>
        <time>2021-05-16T07:13:19-07:00</time>
      </trkpt>
      <trkpt lat="43.46439" lon="4.46702">
        <ele>-1</ele>
        <time>2021-05-16T07:13:20-07:00</time>
      </trkpt>
      <trkpt lat="43.46457" lon="4.4676">
        <ele>-1</ele>
        <time>2021-05-16T07:13:21-07:00</time>
      </trkpt>
      <trkpt lat="43.46472" lon="4.4683">
        <ele>1.9</ele>
        <time>2021-05-16T07:13:22-07:00</time>
      </trkpt>
      <trkpt lat="43.46481" lon="4.469">
        <ele>1</ele>
        <time>2021-05-16T07:13:23-07:00</time>
      </trkpt>
      <trkpt lat="43.46482" lon="4.46969">
        <ele>1</ele>
        <time>2021-05-16T07:13:24-07:00</time>
      </trkpt>
      <trkpt lat="43.46477" lon="4.47041">
        <ele>1</ele>
        <time>2021-05-16T07:13:25-07:00</time>
      </trkpt>
      <trkpt lat="43.46466" lon="4.47122">
        <ele>1</ele>
        <time>2021-05-16T07:13:26-07:00</time>
      </trkpt>
      <trkpt lat="43.46427" lon="4.47285">
        <ele>1</ele>
        <time>2021-05-16T07:13:27-07:00</time>
      </trkpt>
      <trkpt lat="43.46354" lon="4.4757">
        <ele>1</ele>
        <time>2021-05-16T07:13:28-07:00</time>
      </trkpt>
      <trkpt lat="43.46335" lon="4.47656">
        <ele>1.6</ele>
        <time>2021-05-16T07:13:29-07:00</time>
      </trkpt>
      <trkpt lat="43.4619" lon="4.48233">
        <ele>-2</ele>
        <time>2021-05-16T07:13:30-07:00</time>
      </trkpt>
      <trkpt lat="43.46155" lon="4.4836">
        <ele>1</ele>
        <time>2021-05-16T07:13:31-07:00</time>
      </trkpt>
      <trkpt lat="43.46139" lon="4.48434">
        <ele>1</ele>
        <time>2021-05-16T07:13:32-07:00</time>
      </trkpt>
      <trkpt lat="43.46074" lon="4.48679">
        <ele>1</ele>
        <time>2021-05-16T07:13:33-07:00</time>
      </trkpt>
      <trkpt lat="43.45999" lon="4.48991">
        <ele>-1</ele>
        <time>2021-05-16T07:13:34-07:00</time>
      </trkpt>
      <trkpt lat="43.45978" lon="4.49062">
        <ele>1.2</ele>
        <time>2021-05-16T07:13:35-07:00</time>
      </trkpt>
      <trkpt lat="43.45967" lon="4.49113">
        <ele>1</ele>
        <time>2021-05-16T07:13:36-07:00</time>
      </trkpt>
      <trkpt lat="43.45957" lon="4.492">
        <ele>1</ele>
        <time>2021-05-16T07:13:37-07:00</time>
      </trkpt>
      <trkpt lat="43.45954" lon="4.4926">
        <ele>1</ele>
        <time>2021-05-16T07:13:38-07:00</time>
      </trkpt>
      <trkpt lat="43.45954" lon="4.4934">
        <ele>1</ele>
        <time>2021-05-16T07:13:39-07:00</time>
      </trkpt>
      <trkpt lat="43.45958" lon="4.4943">
        <ele>1</ele>
        <time>2021-05-16T07:13:40-07:00</time>
      </trkpt>
      <trkpt lat="43.45962" lon="4.49455">
        <ele>1</ele>
        <time>2021-05-16T07:13:41-07:00</time>
      </trkpt>
      <trkpt lat="43.45968" lon="4.49467">
        <ele>1</ele>
        <time>2021-05-16T07:13:42-07:00</time>
      </trkpt>
      <trkpt lat="43.45969" lon="4.49484">
        <ele>1</ele>
        <time>2021-05-16T07:13:43-07:00</time>
      </trkpt>
      <trkpt lat="43.45968" lon="4.49509">
        <ele>1</ele>
        <time>2021-05-16T07:13:44-07:00</time>
      </trkpt>
      <trkpt lat="43.45959" lon="4.49551">
        <ele>1</ele>
        <time>2021-05-16T07:13:45-07:00</time>
      </trkpt>
      <trkpt lat="43.45965" lon="4.49587">
        <ele>2</ele>
        <time>2021-05-16T07:13:46-07:00</time>
      </trkpt>
      <trkpt lat="43.45976" lon="4.49608">
        <ele>2</ele>
        <time>2021-05-16T07:13:47-07:00</time>
      </trkpt>
      <trkpt lat="43.4601" lon="4.49645">
        <ele>1</ele>
        <time>2021-05-16T07:13:48-07:00</time>
      </trkpt>
      <trkpt lat="43.46063" lon="4.4969">
        <ele>1</ele>
        <time>2021-05-16T07:13:49-07:00</time>
      </trkpt>
      <trkpt lat="43.4609" lon="4.49719">
        <ele>1</ele>
        <time>2021-05-16T07:13:50-07:00</time>
      </trkpt>
      <trkpt lat="43.46116" lon="4.49754">
        <ele>1</ele>
        <time>2021-05-16T07:13:51-07:00</time>
      </trkpt>
      <trkpt lat="43.46147" lon="4.49821">
        <ele>1</ele>
        <time>2021-05-16T07:13:52-07:00</time>
      </trkpt>
      <trkpt lat="43.46157" lon="4.49871">
        <ele>1</ele>
        <time>2021-05-16T07:13:53-07:00</time>
      </trkpt>
      <trkpt lat="43.46159" lon="4.49939">
        <ele>-1</ele>
        <time>2021-05-16T07:13:54-07:00</time>
      </trkpt>
      <trkpt lat="43.46156" lon="4.49965">
        <ele>-1</ele>
        <time>2021-05-16T07:13:55-07:00</time>
      </trkpt>
      <trkpt lat="43.46118" lon="4.50142">
        <ele>1.1</ele>
        <time>2021-05-16T07:13:56-07:00</time>
      </trkpt>
      <trkpt lat="43.46109" lon="4.50202">
        <ele>1.7</ele>
        <time>2021-05-16T07:13:57-07:00</time>
      </trkpt>
      <trkpt lat="43.46103" lon="4.50293">
        <ele>1</ele>
        <time>2021-05-16T07:13:58-07:00</time>
      </trkpt>
      <trkpt lat="43.46106" lon="4.50369">
        <ele>1</ele>
        <time>2021-05-16T07:13:59-07:00</time>
      </trkpt>
      <trkpt lat="43.46128" lon="4.50558">
        <ele>1.6</ele>
        <time>2021-05-16T07:14:00-07:00</time>
      </trkpt>
      <trkpt lat="43.46136" lon="4.50652">
        <ele>1</ele>
        <time>2021-05-16T07:14:01-07:00</time>
      </trkpt>
      <trkpt lat="43.46149" lon="4.50735">
        <ele>2</ele>
        <time>2021-05-16T07:14:02-07:00</time>
      </trkpt>
      <trkpt lat="43.46169" lon="4.50918">
        <ele>2</ele>
        <time>2021-05-16T07:14:03-07:00</time>
      </trkpt>
      <trkpt lat="43.46206" lon="4.51199">
        <ele>1</ele>
        <time>2021-05-16T07:14:04-07:00</time>
      </trkpt>
      <trkpt lat="43.46217" lon="4.51266">
        <ele>1.6</ele>
        <time>2021-05-16T07:14:05-07:00</time>
      </trkpt>
      <trkpt lat="43.46238" lon="4.5134">
        <ele>-1</ele>
        <time>2021-05-16T07:14:06-07:00</time>
      </trkpt>
      <trkpt lat="43.46305" lon="4.51509">
        <ele>2</ele>
        <time>2021-05-16T07:14:07-07:00</time>
      </trkpt>
      <trkpt lat="43.46455" lon="4.51904">
        <ele>1</ele>
        <time>2021-05-16T07:14:08-07:00</time>
      </trkpt>
      <trkpt lat="43.46478" lon="4.51999">
        <ele>2</ele>
        <time>2021-05-16T07:14:09-07:00</time>
      </trkpt>
      <trkpt lat="43.46488" lon="4.521">
        <ele>-1</ele>
        <time>2021-05-16T07:14:10-07:00</time>
      </trkpt>
      <trkpt lat="43.4649" lon="4.52149">
        <ele>-1</ele>
        <time>2021-05-16T07:14:11-07:00</time>
      </trkpt>
      <trkpt lat="43.46446" lon="4.52897">
        <ele>-1</ele>
        <time>2021-05-16T07:14:12-07:00</time>
      </trkpt>
      <trkpt lat="43.46434" lon="4.53149">
        <ele>-2</ele>
        <time>2021-05-16T07:14:13-07:00</time>
      </trkpt>
      <trkpt lat="43.46427" lon="4.53207">
        <ele>1</ele>
        <time>2021-05-16T07:14:14-07:00</time>
      </trkpt>
      <trkpt lat="43.46412" lon="4.53285">
        <ele>1</ele>
        <time>2021-05-16T07:14:15-07:00</time>
      </trkpt>
      <trkpt lat="43.46372" lon="4.53415">
        <ele>1</ele>
        <time>2021-05-16T07:14:16-07:00</time>
      </trkpt>
      <trkpt lat="43.46277" lon="4.53746">
        <ele>1.1</ele>
        <time>2021-05-16T07:14:17-07:00</time>
      </trkpt>
      <trkpt lat="43.46253" lon="4.53821">
        <ele>-1</ele>
        <time>2021-05-16T07:14:18-07:00</time>
      </trkpt>
      <trkpt lat="43.46237" lon="4.5386">
        <ele>-1</ele>
        <time>2021-05-16T07:14:19-07:00</time>
      </trkpt>
      <trkpt lat="43.46203" lon="4.53924">
        <ele>1</ele>
        <time>2021-05-16T07:14:20-07:00</time>
      </trkpt>
      <trkpt lat="43.45887" lon="4.54484">
        <ele>-1</ele>
        <time>2021-05-16T07:14:21-07:00</time>
      </trkpt>
      <trkpt lat="43.45863" lon="4.54534">
        <ele>1.93</ele>
        <time>2021-05-16T07:14:22-07:00</time>
      </trkpt>
      <trkpt lat="43.45837" lon="4.54606">
        <ele>-1</ele>
        <time>2021-05-16T07:14:23-07:00</time>
      </trkpt>
      <trkpt lat="43.45821" lon="4.54667">
        <ele>-1</ele>
        <time>2021-05-16T07:14:24-07:00</time>
      </trkpt>
      <trkpt lat="43.45809" lon="4.54732">
        <ele>1</ele>
        <time>2021-05-16T07:14:25-07:00</time>
      </trkpt>
      <trkpt lat="43.45802" lon="4.54807">
        <ele>1</ele>
        <time>2021-05-16T07:14:26-07:00</time>
      </trkpt>
      <trkpt lat="43.458" lon="4.54854">
        <ele>-1</ele>
        <time>2021-05-16T07:14:27-07:00</time>
      </trkpt>
      <trkpt lat="43.45802" lon="4.54988">
        <ele>1</ele>
        <time>2021-05-16T07:14:28-07:00</time>
      </trkpt>
      <trkpt lat="43.45801" lon="4.55177">
        <ele>1.5</ele>
        <time>2021-05-16T07:14:29-07:00</time>
      </trkpt>
      <trkpt lat="43.45793" lon="4.55271">
        <ele>-1</ele>
        <time>2021-05-16T07:14:30-07:00</time>
      </trkpt>
      <trkpt lat="43.45785" lon="4.55317">
        <ele>1</ele>
        <time>2021-05-16T07:14:31-07:00</time>
      </trkpt>
      <trkpt lat="43.45708" lon="4.556">
        <ele>1</ele>
        <time>2021-05-16T07:14:32-07:00</time>
      </trkpt>
      <trkpt lat="43.45518" lon="4.56275">
        <ele>1</ele>
        <time>2021-05-16T07:14:33-07:00</time>
      </trkpt>
      <trkpt lat="43.45501" lon="4.56341">
        <ele>2</ele>
        <time>2021-05-16T07:14:34-07:00</time>
      </trkpt>
      <trkpt lat="43.45493" lon="4.56391">
        <ele>1</ele>
        <time>2021-05-16T07:14:35-07:00</time>
      </trkpt>
      <trkpt lat="43.45484" lon="4.56508">
        <ele>-2</ele>
        <time>2021-05-16T07:14:36-07:00</time>
      </trkpt>
      <trkpt lat="43.45482" lon="4.56606">
        <ele>-1</ele>
        <time>2021-05-16T07:14:37-07:00</time>
      </trkpt>
      <trkpt lat="43.45476" lon="4.56709">
        <ele>1</ele>
        <time>2021-05-16T07:14:38-07:00</time>
      </trkpt>
      <trkpt lat="43.45464" lon="4.57049">
        <ele>2</ele>
        <time>2021-05-16T07:14:39-07:00</time>
      </trkpt>
      <trkpt lat="43.45419" lon="4.58091">
        <ele>1</ele>
        <time>2021-05-16T07:14:40-07:00</time>
      </trkpt>
      <trkpt lat="43.4541" lon="4.58368">
        <ele>1</ele>
        <time>2021-05-16T07:14:41-07:00</time>
      </trkpt>
      <trkpt lat="43.45405" lon="4.58403">
        <ele>1</ele>
        <time>2021-05-16T07:14:42-07:00</time>
      </trkpt>
      <trkpt lat="43.45409" lon="4.58425">
        <ele>1</ele>
        <time>2021-05-16T07:14:43-07:00</time>
      </trkpt>
      <trkpt lat="43.45403" lon="4.58492">
        <ele>1</ele>
        <time>2021-05-16T07:14:44-07:00</time>
      </trkpt>
      <trkpt lat="43.45393" lon="4.58549">
        <ele>1.7</ele>
        <time>2021-05-16T07:14:45-07:00</time>
      </trkpt>
      <trkpt lat="43.45381" lon="4.58592">
        <ele>1</ele>
        <time>2021-05-16T07:14:46-07:00</time>
      </trkpt>
      <trkpt lat="43.45346" lon="4.58676">
        <ele>1</ele>
        <time>2021-05-16T07:14:47-07:00</time>
      </trkpt>
      <trkpt lat="43.45315" lon="4.58739">
        <ele>1</ele>
        <time>2021-05-16T07:14:48-07:00</time>
      </trkpt>
      <trkpt lat="43.45276" lon="4.58829">
        <ele>1</ele>
        <time>2021-05-16T07:14:49-07:00</time>
      </trkpt>
      <trkpt lat="43.45227" lon="4.58932">
        <ele>1</ele>
        <time>2021-05-16T07:14:50-07:00</time>
      </trkpt>
      <trkpt lat="43.45177" lon="4.59049">
        <ele>1</ele>
        <time>2021-05-16T07:14:51-07:00</time>
      </trkpt>
      <trkpt lat="43.4496" lon="4.59536">
        <ele>1</ele>
        <time>2021-05-16T07:14:52-07:00</time>
      </trkpt>
      <trkpt lat="43.4486" lon="4.59753">
        <ele>-1</ele>
        <time>2021-05-16T07:14:53-07:00</time>
      </trkpt>
      <trkpt lat="43.44801" lon="4.5989">
        <ele>1.3</ele>
        <time>2021-05-16T07:14:54-07:00</time>
      </trkpt>
      <trkpt lat="43.4464" lon="4.60247">
        <ele>-1</ele>
        <time>2021-05-16T07:14:55-07:00</time>
      </trkpt>
      <trkpt lat="43.44631" lon="4.60261">
        <ele>-1</ele>
        <time>2021-05-16T07:14:56-07:00</time>
      </trkpt>
      <trkpt lat="43.44621" lon="4.60288">
        <ele>-1</ele>
        <time>2021-05-16T07:14:57-07:00</time>
      </trkpt>
      <trkpt lat="43.44549" lon="4.60443">
        <ele>-1</ele>
        <time>2021-05-16T07:14:58-07:00</time>
      </trkpt>
      <trkpt lat="43.44499" lon="4.60558">
        <ele>-1</ele>
        <time>2021-05-16T07:14:59-07:00</time>
      </trkpt>
      <trkpt lat="43.44454" lon="4.60649">
        <ele>-2</ele>
        <time>2021-05-16T07:15:00-07:00</time>
      </trkpt>
      <trkpt lat="43.44434" lon="4.60696">
        <ele>-2</ele>
        <time>2021-05-16T07:15:01-07:00</time>
      </trkpt>
      <trkpt lat="43.44423" lon="4.6073">
        <ele>-2</ele>
        <time>2021-05-16T07:15:02-07:00</time>
      </trkpt>
      <trkpt lat="43.44369" lon="4.60841">
        <ele>1</ele>
        <time>2021-05-16T07:15:03-07:00</time>
      </trkpt>
      <trkpt lat="43.44358" lon="4.60871">
        <ele>1</ele>
        <time>2021-05-16T07:15:04-07:00</time>
      </trkpt>
      <trkpt lat="43.44343" lon="4.60899">
        <ele>1</ele>
        <time>2021-05-16T07:15:05-07:00</time>
      </trkpt>
      <trkpt lat="43.44295" lon="4.61008">
        <ele>2</ele>
        <time>2021-05-16T07:15:06-07:00</time>
      </trkpt>
      <trkpt lat="43.44255" lon="4.61075">
        <ele>-1</ele>
        <time>2021-05-16T07:15:07-07:00</time>
      </trkpt>
      <trkpt lat="43.44212" lon="4.61129">
        <ele>-1</ele>
        <time>2021-05-16T07:15:08-07:00</time>
      </trkpt>
      <trkpt lat="43.44149" lon="4.61186">
        <ele>-1</ele>
        <time>2021-05-16T07:15:09-07:00</time>
      </trkpt>
      <trkpt lat="43.4399" lon="4.61313">
        <ele>1</ele>
        <time>2021-05-16T07:15:10-07:00</time>
      </trkpt>
      <trkpt lat="43.4398" lon="4.61326">
        <ele>1</ele>
        <time>2021-05-16T07:15:11-07:00</time>
      </trkpt>
      <trkpt lat="43.43974" lon="4.61353">
        <ele>1</ele>
        <time>2021-05-16T07:15:12-07:00</time>
      </trkpt>
      <trkpt lat="43.43973" lon="4.61369">
        <ele>1</ele>
        <time>2021-05-16T07:15:13-07:00</time>
      </trkpt>
      <trkpt lat="43.43976" lon="4.61472">
        <ele>1</ele>
        <time>2021-05-16T07:15:14-07:00</time>
      </trkpt>
      <trkpt lat="43.43972" lon="4.61482">
        <ele>1</ele>
        <time>2021-05-16T07:15:15-07:00</time>
      </trkpt>
      <trkpt lat="43.43884" lon="4.6147">
        <ele>1</ele>
        <time>2021-05-16T07:15:16-07:00</time>
      </trkpt>
      <trkpt lat="43.43821" lon="4.61456">
        <ele>1.6</ele>
        <time>2021-05-16T07:15:17-07:00</time>
      </trkpt>
      <trkpt lat="43.43795" lon="4.6147">
        <ele>-1</ele>
        <time>2021-05-16T07:15:18-07:00</time>
      </trkpt>
      <trkpt lat="43.43656" lon="4.61581">
        <ele>1</ele>
        <time>2021-05-16T07:15:19-07:00</time>
      </trkpt>
      <trkpt lat="43.43497" lon="4.61594">
        <ele>-1</ele>
        <time>2021-05-16T07:15:20-07:00</time>
      </trkpt>
      <trkpt lat="43.43346" lon="4.61591">
        <ele>1</ele>
        <time>2021-05-16T07:15:21-07:00</time>
      </trkpt>
      <trkpt lat="43.43176" lon="4.61581">
        <ele>1</ele>
        <time>2021-05-16T07:15:22-07:00</time>
      </trkpt>
      <trkpt lat="43.43073" lon="4.61584">
        <ele>2</ele>
        <time>2021-05-16T07:15:23-07:00</time>
      </trkpt>
      <trkpt lat="43.42986" lon="4.61749">
        <ele>-1</ele>
        <time>2021-05-16T07:15:24-07:00</time>
      </trkpt>
      <trkpt lat="43.42915" lon="4.61904">
        <ele>-1</ele>
        <time>2021-05-16T07:15:25-07:00</time>
      </trkpt>
      <trkpt lat="43.4289" lon="4.61928">
        <ele>-1</ele>
        <time>2021-05-16T07:15:26-07:00</time>
      </trkpt>
      <trkpt lat="43.42803" lon="4.61972">
        <ele>-1</ele>
        <time>2021-05-16T07:15:27-07:00</time>
      </trkpt>
      <trkpt lat="43.42779" lon="4.61969">
        <ele>-1</ele>
        <time>2021-05-16T07:15:28-07:00</time>
      </trkpt>
      <trkpt lat="43.42638" lon="4.61859">
        <ele>1</ele>
        <time>2021-05-16T07:15:29-07:00</time>
      </trkpt>
      <trkpt lat="43.4257" lon="4.61857">
        <ele>-1</ele>
        <time>2021-05-16T07:15:30-07:00</time>
      </trkpt>
      <trkpt lat="43.42468" lon="4.61869">
        <ele>1</ele>
        <time>2021-05-16T07:15:31-07:00</time>
      </trkpt>
      <trkpt lat="43.4236" lon="4.61874">
        <time>2021-05-16T07:15:32-07:00</time>
      </trkpt>
      <trkpt lat="43.42175" lon="4.61871">
        <time>2021-05-16T07:15:33-07:00</time>
      </trkpt>
      <trkpt lat="43.42094" lon="4.61867">
        <time>2021-05-16T07:15:34-07:00</time>
      </trkpt>
      <trkpt lat="43.42005" lon="4.61897">
        <ele>1</ele>
        <time>2021-05-16T07:15:35-07:00</time>
      </trkpt>
      <trkpt lat="43.41945" lon="4.61937">
        <ele>1</ele>
        <time>2021-05-16T07:15:36-07:00</time>
      </trkpt>
      <trkpt lat="43.41904" lon="4.61982">
        <ele>1</ele>
        <time>2021-05-16T07:15:37-07:00</time>
      </trkpt>
      <trkpt lat="43.41876" lon="4.62032">
        <ele>1</ele>
        <time>2021-05-16T07:15:38-07:00</time>
      </trkpt>
      <trkpt lat="43.41841" lon="4.62126">
        <ele>1</ele>
        <time>2021-05-16T07:15:39-07:00</time>
      </trkpt>
      <trkpt lat="43.41809" lon="4.62228">
        <ele>-1</ele>
        <time>2021-05-16T07:15:40-07:00</time>
      </trkpt>
      <trkpt lat="43.41665" lon="4.62561">
        <ele>-1</ele>
        <time>2021-05-16T07:15:41-07:00</time>
      </trkpt>
      <trkpt lat="43.41558" lon="4.62819">
        <ele>-1</ele>
        <time>2021-05-16T07:15:42-07:00</time>
      </trkpt>
      <trkpt lat="43.41538" lon="4.62876">
        <ele>-1</ele>
        <time>2021-05-16T07:15:43-07:00</time>
      </trkpt>
      <trkpt lat="43.41448" lon="4.63201">
        <ele>-1</ele>
        <time>2021-05-16T07:15:44-07:00</time>
      </trkpt>
      <trkpt lat="43.414" lon="4.63396">
        <ele>-1</ele>
        <time>2021-05-16T07:15:45-07:00</time>
      </trkpt>
      <trkpt lat="43.41369" lon="4.6365">
        <ele>1</ele>
        <time>2021-05-16T07:15:46-07:00</time>
      </trkpt>
      <trkpt lat="43.41329" lon="4.63943">
        <ele>-2</ele>
        <time>2021-05-16T07:15:47-07:00</time>
      </trkpt>
      <trkpt lat="43.4117" lon="4.64665">
        <ele>1</ele>
        <time>2021-05-16T07:15:48-07:00</time>
      </trkpt>
      <trkpt lat="43.41034" lon="4.65118">
        <ele>1</ele>
        <time>2021-05-16T07:15:49-07:00</time>
      </trkpt>
      <trkpt lat="43.4088" lon="4.65686">
        <ele>1</ele>
        <time>2021-05-16T07:15:50-07:00</time>
      </trkpt>
      <trkpt lat="43.40815" lon="4.65909">
        <ele>-1</ele>
        <time>2021-05-16T07:15:51-07:00</time>
      </trkpt>
      <trkpt lat="43.40724" lon="4.66092">
        <ele>1</ele>
        <time>2021-05-16T07:15:52-07:00</time>
      </trkpt>
      <trkpt lat="43.40536" lon="4.66503">
        <ele>-1</ele>
        <time>2021-05-16T07:15:53-07:00</time>
      </trkpt>
      <trkpt lat="43.4037" lon="4.66845">
        <ele>-1</ele>
        <time>2021-05-16T07:15:54-07:00</time>
      </trkpt>
      <trkpt lat="43.40333" lon="4.66892">
        <ele>1</ele>
        <time>2021-05-16T07:15:55-07:00</time>
      </trkpt>
      <trkpt lat="43.4029" lon="4.66941">
        <ele>1</ele>
        <time>2021-05-16T07:15:56-07:00</time>
      </trkpt>
      <trkpt lat="43.40575" lon="4.6749">
        <ele>-1</ele>
        <time>2021-05-16T07:15:57-07:00</time>
      </trkpt>
      <trkpt lat="43.40627" lon="4.67584">
        <ele>1</ele>
        <time>2021-05-16T07:15:58-07:00</time>
      </trkpt>
      <trkpt lat="43.40705" lon="4.67685">
        <ele>-1</ele>
        <time>2021-05-16T07:15:59-07:00</time>
      </trkpt>
      <trkpt lat="43.40719" lon="4.67694">
        <ele>-1</ele>
        <time>2021-05-16T07:16:00-07:00</time>
      </trkpt>
      <trkpt lat="43.41025" lon="4.67689">
        <ele>-1</ele>
        <time>2021-05-16T07:16:01-07:00</time>
      </trkpt>
      <trkpt lat="43.41113" lon="4.67694">
        <ele>1</ele>
        <time>2021-05-16T07:16:02-07:00</time>
      </trkpt>
      <trkpt lat="43.41167" lon="4.6771">
        <ele>1</ele>
        <time>2021-05-16T07:16:03-07:00</time>
      </trkpt>
      <trkpt lat="43.41181" lon="4.67733">
        <ele>1</ele>
        <time>2021-05-16T07:16:04-07:00</time>
      </trkpt>
      <trkpt lat="43.41233" lon="4.68011">
        <ele>1</ele>
        <time>2021-05-16T07:16:05-07:00</time>
      </trkpt>
      <trkpt lat="43.41372" lon="4.68645">
        <ele>1</ele>
        <time>2021-05-16T07:16:06-07:00</time>
      </trkpt>
      <trkpt lat="43.41377" lon="4.68696">
        <ele>1</ele>
        <time>2021-05-16T07:16:07-07:00</time>
      </trkpt>
      <trkpt lat="43.41375" lon="4.68987">
        <ele>-1</ele>
        <time>2021-05-16T07:16:08-07:00</time>
      </trkpt>
      <trkpt lat="43.41371" lon="4.69078">
        <ele>1</ele>
        <time>2021-05-16T07:16:09-07:00</time>
      </trkpt>
      <trkpt lat="43.41284" lon="4.69245">
        <ele>1</ele>
        <time>2021-05-16T07:16:10-07:00</time>
      </trkpt>
      <trkpt lat="43.41203" lon="4.69393">
        <ele>1</ele>
        <time>2021-05-16T07:16:11-07:00</time>
      </trkpt>
      <trkpt lat="43.41041" lon="4.69705">
        <ele>2</ele>
        <time>2021-05-16T07:16:12-07:00</time>
      </trkpt>
      <trkpt lat="43.40864" lon="4.70024">
        <ele>2</ele>
        <time>2021-05-16T07:16:13-07:00</time>
      </trkpt>
      <trkpt lat="43.40863" lon="4.70052">
        <ele>2</ele>
        <time>2021-05-16T07:16:14-07:00</time>
      </trkpt>
      <trkpt lat="43.40872" lon="4.70078">
        <ele>2</ele>
        <time>2021-05-16T07:16:15-07:00</time>
      </trkpt>
      <trkpt lat="43.40877" lon="4.70105">
        <ele>1</ele>
        <time>2021-05-16T07:16:16-07:00</time>
      </trkpt>
      <trkpt lat="43.40861" lon="4.70141">
        <ele>2</ele>
        <time>2021-05-16T07:16:17-07:00</time>
      </trkpt>
      <trkpt lat="43.40833" lon="4.70177">
        <ele>1</ele>
        <time>2021-05-16T07:16:18-07:00</time>
      </trkpt>
      <trkpt lat="43.40564" lon="4.70909">
        <ele>-1</ele>
        <time>2021-05-16T07:16:19-07:00</time>
      </trkpt>
      <trkpt lat="43.40416" lon="4.71285">
        <ele>1</ele>
        <time>2021-05-16T07:16:20-07:00</time>
      </trkpt>
      <trkpt lat="43.40573" lon="4.71752">
        <ele>2</ele>
        <time>2021-05-16T07:16:21-07:00</time>
      </trkpt>
      <trkpt lat="43.40579" lon="4.71788">
        <ele>1</ele>
        <time>2021-05-16T07:16:22-07:00</time>
      </trkpt>
      <trkpt lat="43.40535" lon="4.72093">
        <ele>-1</ele>
        <time>2021-05-16T07:16:23-07:00</time>
      </trkpt>
      <trkpt lat="43.4051" lon="4.7225">
        <ele>1</ele>
        <time>2021-05-16T07:16:24-07:00</time>
      </trkpt>
      <trkpt lat="43.405" lon="4.72349">
        <ele>2</ele>
        <time>2021-05-16T07:16:25-07:00</time>
      </trkpt>
      <trkpt lat="43.40496" lon="4.72451">
        <ele>3</ele>
        <time>2021-05-16T07:16:26-07:00</time>
      </trkpt>
      <trkpt lat="43.405" lon="4.72469">
        <ele>3</ele>
        <time>2021-05-16T07:16:27-07:00</time>
      </trkpt>
      <trkpt lat="43.40543" lon="4.72497">
        <ele>1</ele>
        <time>2021-05-16T07:16:28-07:00</time>
      </trkpt>
      <trkpt lat="43.4069" lon="4.72562">
        <ele>2</ele>
        <time>2021-05-16T07:16:29-07:00</time>
      </trkpt>
      <trkpt lat="43.40954" lon="4.72696">
        <ele>2</ele>
        <time>2021-05-16T07:16:30-07:00</time>
      </trkpt>
      <trkpt lat="43.41079" lon="4.72763">
        <ele>2</ele>
        <time>2021-05-16T07:16:31-07:00</time>
      </trkpt>
      <trkpt lat="43.41188" lon="4.72817">
        <ele>2</ele>
        <time>2021-05-16T07:16:32-07:00</time>
      </trkpt>
      <trkpt lat="43.41214" lon="4.72824">
        <ele>3</ele>
        <time>2021-05-16T07:16:33-07:00</time>
      </trkpt>
      <trkpt lat="43.41284" lon="4.72806">
        <ele>2</ele>
        <time>2021-05-16T07:16:34-07:00</time>
      </trkpt>
      <trkpt lat="43.41309" lon="4.72818">
        <ele>2</ele>
        <time>2021-05-16T07:16:35-07:00</time>
      </trkpt>
      <trkpt lat="43.41342" lon="4.72851">
        <ele>2</ele>
        <time>2021-05-16T07:16:36-07:00</time>
      </trkpt>
      <trkpt lat="43.41494" lon="4.72972">
        <ele>3</ele>
        <time>2021-05-16T07:16:37-07:00</time>
      </trkpt>
      <trkpt lat="43.41462" lon="4.73041">
        <ele>3</ele>
        <time>2021-05-16T07:16:38-07:00</time>
      </trkpt>
      <trkpt lat="43.41498" lon="4.73065">
        <ele>3</ele>
        <time>2021-05-16T07:16:39-07:00</time>
      </trkpt>
      <trkpt lat="43.41547" lon="4.73105">
        <ele>3</ele>
        <time>2021-05-16T07:16:40-07:00</time>
      </trkpt>
      <trkpt lat="43.41528" lon="4.7314">
        <ele>2</ele>
        <time>2021-05-16T07:16:41-07:00</time>
      </trkpt>
      <trkpt lat="43.41512" lon="4.73142">
        <ele>3</ele>
        <time>2021-05-16T07:16:42-07:00</time>
      </trkpt>
      <trkpt lat="43.41466" lon="4.73189">
        <ele>2</ele>
        <time>2021-05-16T07:16:43-07:00</time>
      </trkpt>
      <trkpt lat="43.41496" lon="4.73254">
        <ele>2</ele>
        <time>2021-05-16T07:16:44-07:00</time>
      </trkpt>
      <trkpt lat="43.41452" lon="4.73299">
        <ele>2</ele>
        <time>2021-05-16T07:16:45-07:00</time>
      </trkpt>
      <trkpt lat="43.41513" lon="4.73426">
        <ele>2</ele>
        <time>2021-05-16T07:16:46-07:00</time>
      </trkpt>
      <trkpt lat="43.41352" lon="4.73575">
        <ele>2</ele>
        <time>2021-05-16T07:16:47-07:00</time>
      </trkpt>
      <trkpt lat="43.41412" lon="4.73714">
        <ele>2</ele>
        <time>2021-05-16T07:16:48-07:00</time>
      </trkpt>
      <trkpt lat="43.41582" lon="4.73559">
        <ele>2</ele>
        <time>2021-05-16T07:16:49-07:00</time>
      </trkpt>
      <trkpt lat="43.41682" lon="4.73464">
        <ele>3</ele>
        <time>2021-05-16T07:16:50-07:00</time>
      </trkpt>
      <trkpt lat="43.4175" lon="4.73596">
        <ele>2</ele>
        <time>2021-05-16T07:16:51-07:00</time>
      </trkpt>
      <trkpt lat="43.41936" lon="4.73417">
        <ele>4</ele>
        <time>2021-05-16T07:16:52-07:00</time>
      </trkpt>
      <trkpt lat="43.41955" lon="4.73388">
        <ele>5</ele>
        <time>2021-05-16T07:16:53-07:00</time>
      </trkpt>
      <trkpt lat="43.41979" lon="4.73342">
        <ele>4</ele>
        <time>2021-05-16T07:16:54-07:00</time>
      </trkpt>
      <trkpt lat="43.42006" lon="4.7328">
        <ele>3</ele>
        <time>2021-05-16T07:16:55-07:00</time>
      </trkpt>
      <trkpt lat="43.42069" lon="4.73154">
        <ele>2</ele>
        <time>2021-05-16T07:16:56-07:00</time>
      </trkpt>
      <trkpt lat="43.42114" lon="4.73088">
        <ele>2</ele>
        <time>2021-05-16T07:16:57-07:00</time>
      </trkpt>
      <trkpt lat="43.42169" lon="4.73">
        <ele>1.97</ele>
        <time>2021-05-16T07:16:58-07:00</time>
      </trkpt>
      <trkpt lat="43.42239" lon="4.72876">
        <ele>1</ele>
        <time>2021-05-16T07:16:59-07:00</time>
      </trkpt>
      <trkpt lat="43.42256" lon="4.72823">
        <ele>2</ele>
        <time>2021-05-16T07:17:00-07:00</time>
      </trkpt>
      <trkpt lat="43.42277" lon="4.72703">
        <ele>1.6</ele>
        <time>2021-05-16T07:17:01-07:00</time>
      </trkpt>
      <trkpt lat="43.42313" lon="4.72551">
        <ele>2</ele>
        <time>2021-05-16T07:17:02-07:00</time>
      </trkpt>
      <trkpt lat="43.42386" lon="4.72431">
        <ele>2</ele>
        <time>2021-05-16T07:17:03-07:00</time>
      </trkpt>
      <trkpt lat="43.42625" lon="4.72096">
        <ele>1.3</ele>
        <time>2021-05-16T07:17:04-07:00</time>
      </trkpt>
      <trkpt lat="43.42769" lon="4.71902">
        <ele>1.5</ele>
        <time>2021-05-16T07:17:05-07:00</time>
      </trkpt>
      <trkpt lat="43.4276" lon="4.71887">
        <ele>-1</ele>
        <time>2021-05-16T07:17:06-07:00</time>
      </trkpt>
      <trkpt lat="43.42737" lon="4.71673">
        <ele>1</ele>
        <time>2021-05-16T07:17:07-07:00</time>
      </trkpt>
      <trkpt lat="43.42657" lon="4.70838">
        <ele>2</ele>
        <time>2021-05-16T07:17:08-07:00</time>
      </trkpt>
      <trkpt lat="43.42664" lon="4.70791">
        <ele>1</ele>
        <time>2021-05-16T07:17:09-07:00</time>
      </trkpt>
      <trkpt lat="43.42707" lon="4.70627">
        <ele>1.5</ele>
        <time>2021-05-16T07:17:10-07:00</time>
      </trkpt>
      <trkpt lat="43.42732" lon="4.70415">
        <ele>1</ele>
        <time>2021-05-16T07:17:11-07:00</time>
      </trkpt>
      <trkpt lat="43.42761" lon="4.702">
        <ele>-1</ele>
        <time>2021-05-16T07:17:12-07:00</time>
      </trkpt>
      <trkpt lat="43.42792" lon="4.70116">
        <ele>1</ele>
        <time>2021-05-16T07:17:13-07:00</time>
      </trkpt>
      <trkpt lat="43.42885" lon="4.69754">
        <ele>2</ele>
        <time>2021-05-16T07:17:14-07:00</time>
      </trkpt>
      <trkpt lat="43.42919" lon="4.69636">
        <ele>1.4</ele>
        <time>2021-05-16T07:17:15-07:00</time>
      </trkpt>
      <trkpt lat="43.42916" lon="4.69547">
        <ele>2</ele>
        <time>2021-05-16T07:17:16-07:00</time>
      </trkpt>
      <trkpt lat="43.42892" lon="4.69479">
        <ele>2</ele>
        <time>2021-05-16T07:17:17-07:00</time>
      </trkpt>
      <trkpt lat="43.4288" lon="4.69407">
        <ele>2</ele>
        <time>2021-05-16T07:17:18-07:00</time>
      </trkpt>
      <trkpt lat="43.42898" lon="4.69367">
        <ele>1</ele>
        <time>2021-05-16T07:17:19-07:00</time>
      </trkpt>
      <trkpt lat="43.42962" lon="4.69283">
        <ele>1</ele>
        <time>2021-05-16T07:17:20-07:00</time>
      </trkpt>
      <trkpt lat="43.43144" lon="4.6902">
        <ele>1</ele>
        <time>2021-05-16T07:17:21-07:00</time>
      </trkpt>
      <trkpt lat="43.43198" lon="4.68902">
        <ele>1</ele>
        <time>2021-05-16T07:17:22-07:00</time>
      </trkpt>
      <trkpt lat="43.43298" lon="4.6876">
        <ele>-1</ele>
        <time>2021-05-16T07:17:23-07:00</time>
      </trkpt>
      <trkpt lat="43.43376" lon="4.68663">
        <ele>1.5</ele>
        <time>2021-05-16T07:17:24-07:00</time>
      </trkpt>
      <trkpt lat="43.43508" lon="4.68469">
        <ele>-1</ele>
        <time>2021-05-16T07:17:25-07:00</time>
      </trkpt>
      <trkpt lat="43.43665" lon="4.68258">
        <ele>2</ele>
        <time>2021-05-16T07:17:26-07:00</time>
      </trkpt>
      <trkpt lat="43.43719" lon="4.6818">
        <ele>3</ele>
        <time>2021-05-16T07:17:27-07:00</time>
      </trkpt>
      <trkpt lat="43.43772" lon="4.68147">
        <ele>3</ele>
        <time>2021-05-16T07:17:28-07:00</time>
      </trkpt>
      <trkpt lat="43.43805" lon="4.68133">
        <ele>3.4</ele>
        <time>2021-05-16T07:17:29-07:00</time>
      </trkpt>
      <trkpt lat="43.43903" lon="4.68135">
        <ele>1</ele>
        <time>2021-05-16T07:17:30-07:00</time>
      </trkpt>
      <trkpt lat="43.43957" lon="4.68105">
        <ele>1</ele>
        <time>2021-05-16T07:17:31-07:00</time>
      </trkpt>
      <trkpt lat="43.4401" lon="4.68031">
        <ele>1.6</ele>
        <time>2021-05-16T07:17:32-07:00</time>
      </trkpt>
      <trkpt lat="43.44041" lon="4.67976">
        <ele>-1</ele>
        <time>2021-05-16T07:17:33-07:00</time>
      </trkpt>
      <trkpt lat="43.44168" lon="4.67805">
        <ele>2</ele>
        <time>2021-05-16T07:17:34-07:00</time>
      </trkpt>
      <trkpt lat="43.4422" lon="4.67741">
        <ele>1</ele>
        <time>2021-05-16T07:17:35-07:00</time>
      </trkpt>
      <trkpt lat="43.44291" lon="4.6768">
        <ele>1</ele>
        <time>2021-05-16T07:17:36-07:00</time>
      </trkpt>
      <trkpt lat="43.44405" lon="4.67519">
        <ele>2</ele>
        <time>2021-05-16T07:17:37-07:00</time>
      </trkpt>
      <trkpt lat="43.44435" lon="4.67455">
        <ele>1</ele>
        <time>2021-05-16T07:17:38-07:00</time>
      </trkpt>
      <trkpt lat="43.44438" lon="4.67275">
        <ele>1</ele>
        <time>2021-05-16T07:17:39-07:00</time>
      </trkpt>
      <trkpt lat="43.4444" lon="4.66791">
        <ele>1</ele>
        <time>2021-05-16T07:17:40-07:00</time>
      </trkpt>
      <trkpt lat="43.44525" lon="4.66605">
        <ele>-1</ele>
        <time>2021-05-16T07:17:41-07:00</time>
      </trkpt>
      <trkpt lat="43.44739" lon="4.66191">
        <ele>4</ele>
        <time>2021-05-16T07:17:42-07:00</time>
      </trkpt>
      <trkpt lat="43.44823" lon="4.66115">
        <ele>4</ele>
        <time>2021-05-16T07:17:43-07:00</time>
      </trkpt>
      <trkpt lat="43.44959" lon="4.66033">
        <ele>1</ele>
        <time>2021-05-16T07:17:44-07:00</time>
      </trkpt>
      <trkpt lat="43.45106" lon="4.65962">
        <ele>1</ele>
        <time>2021-05-16T07:17:45-07:00</time>
      </trkpt>
      <trkpt lat="43.45213" lon="4.6594">
        <ele>-1</ele>
        <time>2021-05-16T07:17:46-07:00</time>
      </trkpt>
      <trkpt lat="43.45494" lon="4.65872">
        <ele>-1</ele>
        <time>2021-05-16T07:17:47-07:00</time>
      </trkpt>
      <trkpt lat="43.45575" lon="4.65832">
        <ele>1</ele>
        <time>2021-05-16T07:17:48-07:00</time>
      </trkpt>
      <trkpt lat="43.45632" lon="4.6582">
        <ele>2</ele>
        <time>2021-05-16T07:17:49-07:00</time>
      </trkpt>
      <trkpt lat="43.45725" lon="4.66014">
        <ele>1</ele>
        <time>2021-05-16T07:17:50-07:00</time>
      </trkpt>
      <trkpt lat="43.4575" lon="4.66051">
        <ele>1</ele>
        <time>2021-05-16T07:17:51-07:00</time>
      </trkpt>
      <trkpt lat="43.45768" lon="4.66054">
        <ele>1</ele>
        <time>2021-05-16T07:17:52-07:00</time>
      </trkpt>
      <trkpt lat="43.45782" lon="4.6603">
        <ele>1</ele>
        <time>2021-05-16T07:17:53-07:00</time>
      </trkpt>
      <trkpt lat="43.45801" lon="4.65988">
        <ele>1</ele>
        <time>2021-05-16T07:17:54-07:00</time>
      </trkpt>
      <trkpt lat="43.45857" lon="4.65913">
        <ele>1</ele>
        <time>2021-05-16T07:17:55-07:00</time>
      </trkpt>
      <trkpt lat="43.46128" lon="4.65613">
        <ele>1.4</ele>
        <time>2021-05-16T07:17:56-07:00</time>
      </trkpt>
      <trkpt lat="43.46433" lon="4.65284">
        <ele>1</ele>
        <time>2021-05-16T07:17:57-07:00</time>
      </trkpt>
      <trkpt lat="43.46636" lon="4.6509">
        <ele>1</ele>
        <time>2021-05-16T07:17:58-07:00</time>
      </trkpt>
      <trkpt lat="43.47139" lon="4.64811">
        <ele>2</ele>
        <time>2021-05-16T07:17:59-07:00</time>
      </trkpt>
      <trkpt lat="43.47192" lon="4.64806">
        <ele>1</ele>
        <time>2021-05-16T07:18:00-07:00</time>
      </trkpt>
      <trkpt lat="43.47234" lon="4.64823">
        <ele>1</ele>
        <time>2021-05-16T07:18:01-07:00</time>
      </trkpt>
      <trkpt lat="43.47313" lon="4.64897">
        <ele>1</ele>
        <time>2021-05-16T07:18:02-07:00</time>
      </trkpt>
      <trkpt lat="43.4734" lon="4.64907">
        <ele>1</ele>
        <time>2021-05-16T07:18:03-07:00</time>
      </trkpt>
      <trkpt lat="43.47403" lon="4.64916">
        <ele>1</ele>
        <time>2021-05-16T07:18:04-07:00</time>
      </trkpt>
      <trkpt lat="43.47495" lon="4.64914">
        <ele>-1</ele>
        <time>2021-05-16T07:18:05-07:00</time>
      </trkpt>
      <trkpt lat="43.4767" lon="4.64846">
        <ele>1</ele>
        <time>2021-05-16T07:18:06-07:00</time>
      </trkpt>
      <trkpt lat="43.47872" lon="4.64778">
        <ele>-1</ele>
        <time>2021-05-16T07:18:07-07:00</time>
      </trkpt>
      <trkpt lat="43.48054" lon="4.64745">
        <ele>1</ele>
        <time>2021-05-16T07:18:08-07:00</time>
      </trkpt>
      <trkpt lat="43.48116" lon="4.6471">
        <ele>-1</ele>
        <time>2021-05-16T07:18:09-07:00</time>
      </trkpt>
      <trkpt lat="43.48203" lon="4.64613">
        <ele>1</ele>
        <time>2021-05-16T07:18:10-07:00</time>
      </trkpt>
      <trkpt lat="43.48238" lon="4.64588">
        <ele>-1</ele>
        <time>2021-05-16T07:18:11-07:00</time>
      </trkpt>
      <trkpt lat="43.48546" lon="4.6445">
        <ele>1</ele>
        <time>2021-05-16T07:18:12-07:00</time>
      </trkpt>
      <trkpt lat="43.48788" lon="4.64361">
        <ele>1</ele>
        <time>2021-05-16T07:18:13-07:00</time>
      </trkpt>
      <trkpt lat="43.48977" lon="4.64264">
        <ele>1</ele>
        <time>2021-05-16T07:18:14-07:00</time>
      </trkpt>
      <trkpt lat="43.49051" lon="4.64229">
        <ele>-1</ele>
        <time>2021-05-16T07:18:15-07:00</time>
      </trkpt>
      <trkpt lat="43.49337" lon="4.64165">
        <ele>1</ele>
        <time>2021-05-16T07:18:16-07:00</time>
      </trkpt>
      <trkpt lat="43.49438" lon="4.6415">
        <ele>1</ele>
        <time>2021-05-16T07:18:17-07:00</time>
      </trkpt>
      <trkpt lat="43.49574" lon="4.64177">
        <ele>1</ele>
        <time>2021-05-16T07:18:18-07:00</time>
      </trkpt>
      <trkpt lat="43.49804" lon="4.64236">
        <ele>1</ele>
        <time>2021-05-16T07:18:19-07:00</time>
      </trkpt>
      <trkpt lat="43.49983" lon="4.64184">
        <ele>1</ele>
        <time>2021-05-16T07:18:20-07:00</time>
      </trkpt>
      <trkpt lat="43.50132" lon="4.64154">
        <ele>1</ele>
        <time>2021-05-16T07:18:21-07:00</time>
      </trkpt>
      <trkpt lat="43.50175" lon="4.64119">
        <ele>-1</ele>
        <time>2021-05-16T07:18:22-07:00</time>
      </trkpt>
      <trkpt lat="43.50525" lon="4.6363">
        <ele>1</ele>
        <time>2021-05-16T07:18:23-07:00</time>
      </trkpt>
      <trkpt lat="43.50658" lon="4.63516">
        <ele>1</ele>
        <time>2021-05-16T07:18:24-07:00</time>
      </trkpt>
      <trkpt lat="43.50687" lon="4.63502">
        <ele>1</ele>
        <time>2021-05-16T07:18:25-07:00</time>
      </trkpt>
      <trkpt lat="43.50801" lon="4.63453">
        <ele>1</ele>
        <time>2021-05-16T07:18:26-07:00</time>
      </trkpt>
      <trkpt lat="43.50873" lon="4.63429">
        <ele>1</ele>
        <time>2021-05-16T07:18:27-07:00</time>
      </trkpt>
      <trkpt lat="43.50968" lon="4.63401">
        <ele>1</ele>
        <time>2021-05-16T07:18:28-07:00</time>
      </trkpt>
      <trkpt lat="43.5106" lon="4.63371">
        <ele>1</ele>
        <time>2021-05-16T07:18:29-07:00</time>
      </trkpt>
      <trkpt lat="43.51106" lon="4.63347">
        <ele>1</ele>
        <time>2021-05-16T07:18:30-07:00</time>
      </trkpt>
      <trkpt lat="43.51221" lon="4.63327">
        <ele>-1</ele>
        <time>2021-05-16T07:18:31-07:00</time>
      </trkpt>
      <trkpt lat="43.51296" lon="4.63328">
        <ele>1</ele>
        <time>2021-05-16T07:18:32-07:00</time>
      </trkpt>
      <trkpt lat="43.51325" lon="4.63326">
        <ele>1</ele>
        <time>2021-05-16T07:18:33-07:00</time>
      </trkpt>
      <trkpt lat="43.51472" lon="4.63304">
        <ele>1</ele>
        <time>2021-05-16T07:18:34-07:00</time>
      </trkpt>
      <trkpt lat="43.51528" lon="4.63309">
        <ele>1</ele>
        <time>2021-05-16T07:18:35-07:00</time>
      </trkpt>
      <trkpt lat="43.5164" lon="4.6334">
        <ele>-1</ele>
        <time>2021-05-16T07:18:36-07:00</time>
      </trkpt>
      <trkpt lat="43.51683" lon="4.63349">
        <ele>1</ele>
        <time>2021-05-16T07:18:37-07:00</time>
      </trkpt>
      <trkpt lat="43.51784" lon="4.63352">
        <ele>2</ele>
        <time>2021-05-16T07:18:38-07:00</time>
      </trkpt>
      <trkpt lat="43.51898" lon="4.6336">
        <ele>1</ele>
        <time>2021-05-16T07:18:39-07:00</time>
      </trkpt>
      <trkpt lat="43.5194" lon="4.63364">
        <ele>-1</ele>
        <time>2021-05-16T07:18:40-07:00</time>
      </trkpt>
      <trkpt lat="43.51965" lon="4.63368">
        <ele>-2</ele>
        <time>2021-05-16T07:18:41-07:00</time>
      </trkpt>
      <trkpt lat="43.5197" lon="4.63374">
        <ele>-2</ele>
        <time>2021-05-16T07:18:42-07:00</time>
      </trkpt>
      <trkpt lat="43.51981" lon="4.63396">
        <ele>-2</ele>
        <time>2021-05-16T07:18:43-07:00</time>
      </trkpt>
      <trkpt lat="43.51996" lon="4.63448">
        <ele>-2</ele>
        <time>2021-05-16T07:18:44-07:00</time>
      </trkpt>
      <trkpt lat="43.52011" lon="4.63469">
        <ele>-1</ele>
        <time>2021-05-16T07:18:45-07:00</time>
      </trkpt>
      <trkpt lat="43.52356" lon="4.63655">
        <ele>1</ele>
        <time>2021-05-16T07:18:46-07:00</time>
      </trkpt>
      <trkpt lat="43.52625" lon="4.63816">
        <ele>-1</ele>
        <time>2021-05-16T07:18:47-07:00</time>
      </trkpt>
      <trkpt lat="43.52884" lon="4.64004">
        <ele>-1</ele>
        <time>2021-05-16T07:18:48-07:00</time>
      </trkpt>
      <trkpt lat="43.52925" lon="4.64039">
        <ele>-1</ele>
        <time>2021-05-16T07:18:49-07:00</time>
      </trkpt>
      <trkpt lat="43.52998" lon="4.64112">
        <ele>1</ele>
        <time>2021-05-16T07:18:50-07:00</time>
      </trkpt>
      <trkpt lat="43.53013" lon="4.64124">
        <ele>1</ele>
        <time>2021-05-16T07:18:51-07:00</time>
      </trkpt>
      <trkpt lat="43.53037" lon="4.64135">
        <ele>-1</ele>
        <time>2021-05-16T07:18:52-07:00</time>
      </trkpt>
      <trkpt lat="43.53467" lon="4.64294">
        <ele>-1</ele>
        <time>2021-05-16T07:18:53-07:00</time>
      </trkpt>
      <trkpt lat="43.53503" lon="4.64297">
        <ele>1</ele>
        <time>2021-05-16T07:18:54-07:00</time>
      </trkpt>
      <trkpt lat="43.53627" lon="4.64289">
        <ele>1</ele>
        <time>2021-05-16T07:18:55-07:00</time>
      </trkpt>
      <trkpt lat="43.53653" lon="4.64276">
        <ele>1</ele>
        <time>2021-05-16T07:18:56-07:00</time>
      </trkpt>
      <trkpt lat="43.53678" lon="4.64252">
        <ele>1</ele>
        <time>2021-05-16T07:18:57-07:00</time>
      </trkpt>
      <trkpt lat="43.53723" lon="4.64215">
        <ele>1</ele>
        <time>2021-05-16T07:18:58-07:00</time>
      </trkpt>
      <trkpt lat="43.53741" lon="4.64207">
        <ele>1</ele>
        <time>2021-05-16T07:18:59-07:00</time>
      </trkpt>
      <trkpt lat="43.53757" lon="4.64174">
        <ele>1</ele>
        <time>2021-05-16T07:19:00-07:00</time>
      </trkpt>
      <trkpt lat="43.53771" lon="4.64133">
        <ele>-1</ele>
        <time>2021-05-16T07:19:01-07:00</time>
      </trkpt>
      <trkpt lat="43.53798" lon="4.64067">
        <ele>-1</ele>
        <time>2021-05-16T07:19:02-07:00</time>
      </trkpt>
      <trkpt lat="43.53836" lon="4.63999">
        <ele>-1</ele>
        <time>2021-05-16T07:19:03-07:00</time>
      </trkpt>
      <trkpt lat="43.53861" lon="4.63945">
        <ele>-2</ele>
        <time>2021-05-16T07:19:04-07:00</time>
      </trkpt>
      <trkpt lat="43.5391" lon="4.6387">
        <ele>-1</ele>
        <time>2021-05-16T07:19:05-07:00</time>
      </trkpt>
      <trkpt lat="43.53924" lon="4.63841">
        <ele>-2</ele>
        <time>2021-05-16T07:19:06-07:00</time>
      </trkpt>
      <trkpt lat="43.53956" lon="4.63795">
        <ele>-1</ele>
        <time>2021-05-16T07:19:07-07:00</time>
      </trkpt>
      <trkpt lat="43.54051" lon="4.63645">
        <ele>-2</ele>
        <time>2021-05-16T07:19:08-07:00</time>
      </trkpt>
      <trkpt lat="43.54167" lon="4.63398">
        <ele>-3</ele>
        <time>2021-05-16T07:19:09-07:00</time>
      </trkpt>
      <trkpt lat="43.54184" lon="4.63368">
        <ele>1</ele>
        <time>2021-05-16T07:19:10-07:00</time>
      </trkpt>
      <trkpt lat="43.54204" lon="4.63342">
        <ele>3</ele>
        <time>2021-05-16T07:19:11-07:00</time>
      </trkpt>
      <trkpt lat="43.54411" lon="4.63204">
        <ele>1</ele>
        <time>2021-05-16T07:19:12-07:00</time>
      </trkpt>
      <trkpt lat="43.54577" lon="4.63069">
        <ele>-1</ele>
        <time>2021-05-16T07:19:13-07:00</time>
      </trkpt>
      <trkpt lat="43.54636" lon="4.63027">
        <ele>1</ele>
        <time>2021-05-16T07:19:14-07:00</time>
      </trkpt>
      <trkpt lat="43.54712" lon="4.62967">
        <ele>1</ele>
        <time>2021-05-16T07:19:15-07:00</time>
      </trkpt>
      <trkpt lat="43.5474" lon="4.62952">
        <ele>-2</ele>
        <time>2021-05-16T07:19:16-07:00</time>
      </trkpt>
      <trkpt lat="43.54762" lon="4.62947">
        <ele>-2</ele>
        <time>2021-05-16T07:19:17-07:00</time>
      </trkpt>
      <trkpt lat="43.54914" lon="4.62927">
        <ele>1</ele>
        <time>2021-05-16T07:19:18-07:00</time>
      </trkpt>
      <trkpt lat="43.54966" lon="4.6291">
        <ele>-1</ele>
        <time>2021-05-16T07:19:19-07:00</time>
      </trkpt>
      <trkpt lat="43.55022" lon="4.62873">
        <ele>1</ele>
        <time>2021-05-16T07:19:20-07:00</time>
      </trkpt>
      <trkpt lat="43.55221" lon="4.62755">
        <ele>-1</ele>
        <time>2021-05-16T07:19:21-07:00</time>
      </trkpt>
      <trkpt lat="43.55253" lon="4.62733">
        <ele>1</ele>
        <time>2021-05-16T07:19:22-07:00</time>
      </trkpt>
      <trkpt lat="43.55283" lon="4.62704">
        <ele>1</ele>
        <time>2021-05-16T07:19:23-07:00</time>
      </trkpt>
      <trkpt lat="43.55351" lon="4.62614">
        <ele>1</ele>
        <time>2021-05-16T07:19:24-07:00</time>
      </trkpt>
      <trkpt lat="43.55363" lon="4.62603">
        <ele>1</ele>
        <time>2021-05-16T07:19:25-07:00</time>
      </trkpt>
      <trkpt lat="43.55376" lon="4.62596">
        <ele>1</ele>
        <time>2021-05-16T07:19:26-07:00</time>
      </trkpt>
      <trkpt lat="43.55568" lon="4.62527">
        <ele>1</ele>
        <time>2021-05-16T07:19:27-07:00</time>
      </trkpt>
      <trkpt lat="43.55668" lon="4.62496">
        <ele>2</ele>
        <time>2021-05-16T07:19:28-07:00</time>
      </trkpt>
      <trkpt lat="43.55969" lon="4.62392">
        <ele>1.3</ele>
        <time>2021-05-16T07:19:29-07:00</time>
      </trkpt>
      <trkpt lat="43.56018" lon="4.62378">
        <ele>1</ele>
        <time>2021-05-16T07:19:30-07:00</time>
      </trkpt>
      <trkpt lat="43.56034" lon="4.62376">
        <ele>1</ele>
        <time>2021-05-16T07:19:31-07:00</time>
      </trkpt>
      <trkpt lat="43.56082" lon="4.62376">
        <ele>1</ele>
        <time>2021-05-16T07:19:32-07:00</time>
      </trkpt>
      <trkpt lat="43.56216" lon="4.62389">
        <ele>6</ele>
        <time>2021-05-16T07:19:33-07:00</time>
      </trkpt>
      <trkpt lat="43.56226" lon="4.62388">
        <ele>6</ele>
        <time>2021-05-16T07:19:34-07:00</time>
      </trkpt>
      <trkpt lat="43.56287" lon="4.62397">
        <ele>4</ele>
        <time>2021-05-16T07:19:35-07:00</time>
      </trkpt>
      <trkpt lat="43.56407" lon="4.62406">
        <ele>5</ele>
        <time>2021-05-16T07:19:36-07:00</time>
      </trkpt>
      <trkpt lat="43.56481" lon="4.62418">
        <ele>5</ele>
        <time>2021-05-16T07:19:37-07:00</time>
      </trkpt>
      <trkpt lat="43.56679" lon="4.62479">
        <ele>4</ele>
        <time>2021-05-16T07:19:38-07:00</time>
      </trkpt>
      <trkpt lat="43.56717" lon="4.62486">
        <ele>3</ele>
        <time>2021-05-16T07:19:39-07:00</time>
      </trkpt>
      <trkpt lat="43.57012" lon="4.62476">
        <ele>6</ele>
        <time>2021-05-16T07:19:40-07:00</time>
      </trkpt>
      <trkpt lat="43.57037" lon="4.6247">
        <ele>8</ele>
        <time>2021-05-16T07:19:41-07:00</time>
      </trkpt>
      <trkpt lat="43.57072" lon="4.62453">
        <ele>9</ele>
        <time>2021-05-16T07:19:42-07:00</time>
      </trkpt>
      <trkpt lat="43.57096" lon="4.62437">
        <ele>9</ele>
        <time>2021-05-16T07:19:43-07:00</time>
      </trkpt>
      <trkpt lat="43.57146" lon="4.62413">
        <ele>9</ele>
        <time>2021-05-16T07:19:44-07:00</time>
      </trkpt>
      <trkpt lat="43.57194" lon="4.62399">
        <ele>5</ele>
        <time>2021-05-16T07:19:45-07:00</time>
      </trkpt>
      <trkpt lat="43.57334" lon="4.62371">
        <ele>2</ele>
        <time>2021-05-16T07:19:46-07:00</time>
      </trkpt>
      <trkpt lat="43.57364" lon="4.62356">
        <ele>3</ele>
        <time>2021-05-16T07:19:47-07:00</time>
      </trkpt>
      <trkpt lat="43.57372" lon="4.62341">
        <ele>3</ele>
        <time>2021-05-16T07:19:48-07:00</time>
      </trkpt>
      <trkpt lat="43.57396" lon="4.62321">
        <ele>4</ele>
        <time>2021-05-16T07:19:49-07:00</time>
      </trkpt>
      <trkpt lat="43.57258" lon="4.61864">
        <ele>2.6</ele>
      </trkpt>
      <trkpt lat="43.57139" lon="4.61143">
        <ele>1.8</ele>
      </trkpt>
      <trkpt lat="43.57009" lon="4.60653">
        <ele>2.3</ele>
      </trkpt>
      <trkpt lat="43.5699" lon="4.60301">
        <ele>3.2</ele>
      </trkpt>
      <trkpt lat="43.56965" lon="4.59907">
        <ele>2.6</ele>
      </trkpt>
      <trkpt lat="43.5686" lon="4.59529">
        <ele>2.2</ele>
      </trkpt>
      <trkpt lat="43.56717" lon="4.59083">
        <ele>1.6</ele>
      </trkpt>
      <trkpt lat="43.56623" lon="4.58782">
        <ele>1.8</ele>
      </trkpt>
      <trkpt lat="43.56586" lon="4.5837">
        <ele>1</ele>
      </trkpt>
      <trkpt lat="43.56561" lon="4.5783">
        <ele>1</ele>
      </trkpt>
      <trkpt lat="43.56636" lon="4.574">
        <ele>1</ele>
      </trkpt>
      <trkpt lat="43.56717" lon="4.57014">
        <ele>1.7</ele>
      </trkpt>
      <trkpt lat="43.56735" lon="4.56585">
        <ele>1.8</ele>
      </trkpt>
      <trkpt lat="43.56866" lon="4.56147">
        <ele>2.8</ele>
      </trkpt>
      <trkpt lat="43.57077" lon="4.55864">
        <ele>1.3</ele>
      </trkpt>
      <trkpt lat="43.57208" lon="4.5522">
        <ele>1.3</ele>
      </trkpt>
      <trkpt lat="43.57283" lon="4.54928">
        <ele>1</ele>
      </trkpt>
      <trkpt lat="43.57238" lon="4.54531">
        <ele>1</ele>
        <time>2021-05-16T07:08:58-07:00</time>
      </trkpt>
    </trkseg>
  </trk>
</gpx>